Observation data for Castolon 1NW BBNP on 04/16/2021      Previous  Date  Next       Current Mesonet Observations  Soil Data  Daily Summary Page  Observations in Plain Language
KCA2 160500Z 29006KT 26/09 A2973 RMK A01 T02630086  RH  033%=      5-min Rain = 0
KCA2 160501Z 28005KT 26/09 A2973 RMK A01 T02620088  RH  033%=      5-min Rain = 0
KCA2 160502Z 28005KT 26/09 A2974 RMK A01 T02620091  RH  034%=      5-min Rain = 0
KCA2 160503Z 29006KT 26/09 A2974 RMK A01 T02620094  RH  035%=      5-min Rain = 0
KCA2 160504Z 30006KT 26/10 A2974 RMK A01 T02620096  RH  035%=      5-min Rain = 0
KCA2 160505Z 29006KT 26/10 A2974 RMK A01 T02610095  RH  035%=      5-min Rain = 0
KCA2 160506Z 29006KT 26/10 A2974 RMK A01 T02610095  RH  035%=      5-min Rain = 0
KCA2 160507Z 27006KT 26/09 A2974 RMK A01 T02600088  RH  034%=      5-min Rain = 0
KCA2 160508Z 27006KT 26/09 A2974 RMK A01 T02570088  RH  034%=      5-min Rain = 0
KCA2 160509Z 27007KT 26/09 A2974 RMK A01 T02550089  RH  035%=      5-min Rain = 0
KCA2 160510Z 28007KT 25/09 A2974 RMK A01 T02540090  RH  035%=      5-min Rain = 0
KCA2 160511Z 28008KT 25/09 A2974 RMK A01 T02530091  RH  036%=      5-min Rain = 0
KCA2 160512Z 28007KT 25/09 A2974 RMK A01 T02520091  RH  036%=      5-min Rain = 0
KCA2 160513Z 28007KT 25/09 A2974 RMK A01 T02510092  RH  036%=      5-min Rain = 0
KCA2 160514Z 29006KT 25/09 A2974 RMK A01 T02510092  RH  036%=      5-min Rain = 0
KCA2 160515Z 29007KT 25/09 A2974 RMK A01 T02510092  RH  036%=      5-min Rain = 0
KCA2 160516Z 30005KT 25/09 A2974 RMK A01 T02510092  RH  036%=      5-min Rain = 0
KCA2 160517Z 30007KT 25/09 A2974 RMK A01 T02510094  RH  037%=      5-min Rain = 0
KCA2 160518Z 30007KT 25/10 A2974 RMK A01 T02520100  RH  038%=      5-min Rain = 0
KCA2 160519Z 29007KT 25/10 A2974 RMK A01 T02530104  RH  039%=      5-min Rain = 0
KCA2 160520Z 28006KT 25/10 A2974 RMK A01 T02540099  RH  038%=      5-min Rain = 0
KCA2 160521Z 28007KT 25/10 A2974 RMK A01 T02540097  RH  037%=      5-min Rain = 0
KCA2 160522Z 29007KT 25/10 A2974 RMK A01 T02520099  RH  038%=      5-min Rain = 0
KCA2 160523Z 29006KT 25/10 A2974 RMK A01 T02510101  RH  039%=      5-min Rain = 0
KCA2 160524Z 29006KT 25/10 A2974 RMK A01 T02510102  RH  039%=      5-min Rain = 0
KCA2 160525Z 28006KT 25/10 A2974 RMK A01 T02500103  RH  040%=      5-min Rain = 0
KCA2 160526Z 28007KT 25/11 A2974 RMK A01 T02500105  RH  040%=      5-min Rain = 0
KCA2 160527Z 29007KT 25/11 A2974 RMK A01 T02490106  RH  040%=      5-min Rain = 0
KCA2 160528Z 29006KT 25/11 A2974 RMK A01 T02490107  RH  041%=      5-min Rain = 0
KCA2 160529Z 29007KT 25/11 A2974 RMK A01 T02490107  RH  041%=      5-min Rain = 0
KCA2 160530Z 29006KT 25/11 A2974 RMK A01 T02490109  RH  041%=      5-min Rain = 0
KCA2 160531Z 29007KT 25/11 A2974 RMK A01 T02490110  RH  042%=      5-min Rain = 0
KCA2 160532Z 29006KT 25/11 A2974 RMK A01 T02490110  RH  042%=      5-min Rain = 0
KCA2 160533Z 29004KT 25/11 A2974 RMK A01 T02490110  RH  042%=      5-min Rain = 0
KCA2 160534Z 29005KT 25/11 A2974 RMK A01 T02490110  RH  042%=      5-min Rain = 0
KCA2 160535Z 29006KT 25/11 A2974 RMK A01 T02490111  RH  042%=      5-min Rain = 0
KCA2 160536Z 28006KT 25/11 A2974 RMK A01 T02490111  RH  042%=      5-min Rain = 0
KCA2 160537Z 30005KT 25/11 A2974 RMK A01 T02490110  RH  042%=      5-min Rain = 0
KCA2 160538Z 30006KT 25/11 A2974 RMK A01 T02490110  RH  042%=      5-min Rain = 0
KCA2 160539Z 30003KT 25/11 A2975 RMK A01 T02490110  RH  042%=      5-min Rain = 0
KCA2 160540Z 31004KT 25/11 A2975 RMK A01 T02490110  RH  042%=      5-min Rain = 0
KCA2 160541Z 31003KT 25/11 A2975 RMK A01 T02500111  RH  042%=      5-min Rain = 0
KCA2 160542Z 32003KT 25/11 A2975 RMK A01 T02500111  RH  042%=      5-min Rain = 0
KCA2 160543Z 34003KT 25/11 A2975 RMK A01 T02510112  RH  042%=      5-min Rain = 0
KCA2 160544Z 35003KT 25/11 A2975 RMK A01 T02510113  RH  042%=      5-min Rain = 0
KCA2 160545Z 35002KT 25/11 A2975 RMK A01 T02510113  RH  042%=      5-min Rain = 0
KCA2 160546Z 36002KT 25/11 A2975 RMK A01 T02510113  RH  042%=      5-min Rain = 0
KCA2 160547Z 34001KT 25/11 A2975 RMK A01 T02510113  RH  042%=      5-min Rain = 0
KCA2 160548Z 31000KT 25/11 A2975 RMK A01 T02510113  RH  042%=      5-min Rain = 0
KCA2 160549Z 29001KT 25/11 A2975 RMK A01 T02510112  RH  042%=      5-min Rain = 0
KCA2 160550Z 23002KT 25/11 A2975 RMK A01 T02510111  RH  041%=      5-min Rain = 0
KCA2 160551Z 25002KT 25/11 A2975 RMK A01 T02500110  RH  041%=      5-min Rain = 0
KCA2 160552Z 26002KT 25/11 A2975 RMK A01 T02490110  RH  042%=      5-min Rain = 0
KCA2 160553Z 27002KT 25/11 A2975 RMK A01 T02490109  RH  042%=      5-min Rain = 0
KCA2 160554Z 27003KT 25/11 A2975 RMK A01 T02480109  RH  042%=      5-min Rain = 0
KCA2 160555Z 28004KT 25/11 A2975 RMK A01 T02460108  RH  042%=      5-min Rain = 0
KCA2 160556Z 29004KT 25/11 A2975 RMK A01 T02450108  RH  042%=      5-min Rain = 0
KCA2 160557Z 29005KT 25/11 A2975 RMK A01 T02450108  RH  042%=      5-min Rain = 0
KCA2 160558Z 30005KT 25/11 A2975 RMK A01 T02450110  RH  043%=      5-min Rain = 0
KCA2 160559Z 30005KT 25/11 A2975 RMK A01 T02460109  RH  042%=      5-min Rain = 0
KCA2 160600Z 30005KT 25/11 A2975 RMK A01 T02460109  RH  042%=      5-min Rain = 0
KCA2 160601Z 31006KT 25/11 A2975 RMK A01 T02470109  RH  042%=      5-min Rain = 0
KCA2 160602Z 30005KT 25/11 A2975 RMK A01 T02470108  RH  042%=      5-min Rain = 0
KCA2 160603Z 30005KT 25/11 A2975 RMK A01 T02470108  RH  042%=      5-min Rain = 0
KCA2 160604Z 29006KT 25/11 A2975 RMK A01 T02470109  RH  042%=      5-min Rain = 0
KCA2 160605Z 29005KT 25/11 A2975 RMK A01 T02480110  RH  042%=      5-min Rain = 0
KCA2 160606Z 29005KT 25/11 A2975 RMK A01 T02480110  RH  042%=      5-min Rain = 0
KCA2 160607Z 28005KT 25/11 A2975 RMK A01 T02480110  RH  042%=      5-min Rain = 0
KCA2 160608Z 28006KT 25/11 A2975 RMK A01 T02490111  RH  042%=      5-min Rain = 0
KCA2 160609Z 29006KT 25/11 A2975 RMK A01 T02490111  RH  042%=      5-min Rain = 0
KCA2 160610Z 29006KT 25/11 A2975 RMK A01 T02480111  RH  042%=      5-min Rain = 0
KCA2 160611Z 29006KT 25/11 A2975 RMK A01 T02480113  RH  043%=      5-min Rain = 0
KCA2 160612Z 29005KT 25/11 A2975 RMK A01 T02480113  RH  043%=      5-min Rain = 0
KCA2 160613Z 28005KT 25/11 A2975 RMK A01 T02470113  RH  043%=      5-min Rain = 0
KCA2 160614Z 29005KT 25/11 A2975 RMK A01 T02470113  RH  043%=      5-min Rain = 0
KCA2 160615Z 29005KT 25/11 A2975 RMK A01 T02470113  RH  043%=      5-min Rain = 0
KCA2 160616Z 28005KT 25/11 A2975 RMK A01 T02470113  RH  043%=      5-min Rain = 0
KCA2 160617Z 29004KT 25/11 A2975 RMK A01 T02470112  RH  043%=      5-min Rain = 0
KCA2 160618Z 28004KT 25/11 A2975 RMK A01 T02460111  RH  042%=      5-min Rain = 0
KCA2 160619Z 28003KT 25/11 A2975 RMK A01 T02460111  RH  043%=      5-min Rain = 0
KCA2 160620Z 27003KT 25/11 A2975 RMK A01 T02460110  RH  043%=      5-min Rain = 0
KCA2 160621Z 25003KT 25/11 A2975 RMK A01 T02460110  RH  043%=      5-min Rain = 0
KCA2 160622Z 23002KT 25/11 A2975 RMK A01 T02460110  RH  043%=      5-min Rain = 0
KCA2 160623Z 25002KT 25/11 A2975 RMK A01 T02450110  RH  043%=      5-min Rain = 0
KCA2 160624Z 25003KT 25/11 A2975 RMK A01 T02450110  RH  043%=      5-min Rain = 0
KCA2 160625Z 27004KT 25/11 A2975 RMK A01 T02450109  RH  042%=      5-min Rain = 0
KCA2 160626Z 27005KT 25/11 A2975 RMK A01 T02450110  RH  043%=      5-min Rain = 0
KCA2 160627Z 28004KT 25/11 A2975 RMK A01 T02450109  RH  043%=      5-min Rain = 0
KCA2 160628Z 29003KT 24/11 A2975 RMK A01 T02440109  RH  043%=      5-min Rain = 0
KCA2 160629Z 29003KT 24/11 A2975 RMK A01 T02440109  RH  043%=      5-min Rain = 0
KCA2 160630Z 28003KT 24/11 A2975 RMK A01 T02430108  RH  043%=      5-min Rain = 0
KCA2 160631Z 29003KT 24/11 A2975 RMK A01 T02430108  RH  043%=      5-min Rain = 0
KCA2 160632Z 29003KT 24/11 A2975 RMK A01 T02420108  RH  043%=      5-min Rain = 0
KCA2 160633Z 30005KT 24/11 A2975 RMK A01 T02420108  RH  043%=      5-min Rain = 0
KCA2 160634Z 31005KT 24/11 A2975 RMK A01 T02420108  RH  043%=      5-min Rain = 0
KCA2 160635Z 30006KT 24/11 A2975 RMK A01 T02420109  RH  043%=      5-min Rain = 0
KCA2 160636Z 30005KT 24/11 A2975 RMK A01 T02430109  RH  043%=      5-min Rain = 0
KCA2 160637Z 31004KT 24/11 A2975 RMK A01 T02440109  RH  043%=      5-min Rain = 0
KCA2 160638Z 31005KT 24/11 A2976 RMK A01 T02440111  RH  043%=      5-min Rain = 0
KCA2 160639Z 30006KT 24/11 A2976 RMK A01 T02440112  RH  043%=      5-min Rain = 0
KCA2 160640Z 31006KT 24/11 A2976 RMK A01 T02440113  RH  044%=      5-min Rain = 0
KCA2 160641Z 31005KT 25/11 A2976 RMK A01 T02450113  RH  044%=      5-min Rain = 0
KCA2 160642Z 31006KT 24/11 A2976 RMK A01 T02440114  RH  044%=      5-min Rain = 0
KCA2 160643Z 31006KT 24/12 A2976 RMK A01 T02440116  RH  045%=      5-min Rain = 0
KCA2 160644Z 31006KT 24/12 A2976 RMK A01 T02440117  RH  045%=      5-min Rain = 0
KCA2 160645Z 32007KT 24/12 A2976 RMK A01 T02440117  RH  045%=      5-min Rain = 0
KCA2 160646Z 32007KT 24/12 A2976 RMK A01 T02440117  RH  045%=      5-min Rain = 0
KCA2 160647Z 32008KT 24/12 A2975 RMK A01 T02440116  RH  045%=      5-min Rain = 0
KCA2 160648Z 32006KT 24/12 A2975 RMK A01 T02440117  RH  045%=      5-min Rain = 0
KCA2 160649Z 32006KT 24/12 A2975 RMK A01 T02440117  RH  045%=      5-min Rain = 0
KCA2 160650Z 31006KT 24/11 A2975 RMK A01 T02440113  RH  044%=      5-min Rain = 0
KCA2 160651Z 30004KT 24/11 A2975 RMK A01 T02440112  RH  044%=      5-min Rain = 0
KCA2 160652Z 30007KT 24/11 A2975 RMK A01 T02440111  RH  043%=      5-min Rain = 0
KCA2 160653Z 30008KT 24/11 A2975 RMK A01 T02440108  RH  042%=      5-min Rain = 0
KCA2 160654Z 31007KT 25/11 A2976 RMK A01 T02450108  RH  042%=      5-min Rain = 0
KCA2 160655Z 30006KT 25/11 A2976 RMK A01 T02450108  RH  042%=      5-min Rain = 0
KCA2 160656Z 30005KT 25/11 A2976 RMK A01 T02450108  RH  042%=      5-min Rain = 0
KCA2 160657Z 30006KT 25/11 A2976 RMK A01 T02450108  RH  042%=      5-min Rain = 0
KCA2 160658Z 31007KT 25/11 A2976 RMK A01 T02450109  RH  042%=      5-min Rain = 0
KCA2 160659Z 30010KT 25/11 A2976 RMK A01 T02450111  RH  043%=      5-min Rain = 0
KCA2 160700Z 31009KT 25/11 A2976 RMK A01 T02450113  RH  044%=      5-min Rain = 0
KCA2 160701Z 31009KT 25/11 A2976 RMK A01 T02450113  RH  044%=      5-min Rain = 0
KCA2 160702Z 31008KT 25/11 A2976 RMK A01 T02450113  RH  044%=      5-min Rain = 0
KCA2 160703Z 30008KT 25/11 A2976 RMK A01 T02450112  RH  043%=      5-min Rain = 0
KCA2 160704Z 29008KT 25/11 A2976 RMK A01 T02450110  RH  043%=      5-min Rain = 0
KCA2 160705Z 29006KT 25/11 A2976 RMK A01 T02450110  RH  043%=      5-min Rain = 0
KCA2 160706Z 29008KT 25/11 A2976 RMK A01 T02450109  RH  042%=      5-min Rain = 0
KCA2 160707Z 29008KT 24/11 A2976 RMK A01 T02440108  RH  042%=      5-min Rain = 0
KCA2 160708Z 29009KT 24/11 A2976 RMK A01 T02440107  RH  042%=      5-min Rain = 0
KCA2 160709Z 29009KT 24/11 A2976 RMK A01 T02440107  RH  042%=      5-min Rain = 0
KCA2 160710Z 30008KT 24/11 A2976 RMK A01 T02440107  RH  042%=      5-min Rain = 0
KCA2 160711Z 30008KT 24/11 A2976 RMK A01 T02430107  RH  042%=      5-min Rain = 0
KCA2 160712Z 29009KT 24/11 A2976 RMK A01 T02430108  RH  043%=      5-min Rain = 0
KCA2 160713Z 29009KT 24/11 A2976 RMK A01 T02430109  RH  043%=      5-min Rain = 0
KCA2 160714Z 29008KT 24/11 A2976 RMK A01 T02420109  RH  043%=      5-min Rain = 0
KCA2 160715Z 30008KT 24/11 A2976 RMK A01 T02410109  RH  043%=      5-min Rain = 0
KCA2 160716Z 30008KT 24/11 A2976 RMK A01 T02410109  RH  044%=      5-min Rain = 0
KCA2 160717Z 30008KT 24/11 A2976 RMK A01 T02400110  RH  044%=      5-min Rain = 0
KCA2 160718Z 29010KT 24/11 A2976 RMK A01 T02400111  RH  044%=      5-min Rain = 0
KCA2 160719Z 30011KT 24/11 A2976 RMK A01 T02400113  RH  045%=      5-min Rain = 0
KCA2 160720Z 31009KT 24/11 A2976 RMK A01 T02390113  RH  045%=      5-min Rain = 0
KCA2 160721Z 31010KT 24/12 A2976 RMK A01 T02400117  RH  046%=      5-min Rain = 0
KCA2 160722Z 31010KT 24/12 A2976 RMK A01 T02390121  RH  047%=      5-min Rain = 0
KCA2 160723Z 32010KT 24/12 A2976 RMK A01 T02390123  RH  048%=      5-min Rain = 0
KCA2 160724Z 32011KT 24/13 A2976 RMK A01 T02380126  RH  050%=      5-min Rain = 0
KCA2 160725Z 32008KT 24/13 A2976 RMK A01 T02370128  RH  051%=      5-min Rain = 0
KCA2 160726Z 32008KT 24/13 A2976 RMK A01 T02360129  RH  051%=      5-min Rain = 0
KCA2 160727Z 31006KT 24/13 A2976 RMK A01 T02350129  RH  051%=      5-min Rain = 0
KCA2 160728Z 31005KT 24/13 A2976 RMK A01 T02350127  RH  051%=      5-min Rain = 0
KCA2 160729Z 31006KT 24/13 A2976 RMK A01 T02350125  RH  050%=      5-min Rain = 0
KCA2 160730Z 30006KT 24/12 A2976 RMK A01 T02350123  RH  049%=      5-min Rain = 0
KCA2 160731Z 30009KT 24/12 A2976 RMK A01 T02350121  RH  049%=      5-min Rain = 0
KCA2 160732Z 30010KT 24/12 A2976 RMK A01 T02360120  RH  048%=      5-min Rain = 0
KCA2 160733Z 29009KT 24/12 A2976 RMK A01 T02360120  RH  048%=      5-min Rain = 0
KCA2 160734Z 29008KT 24/12 A2976 RMK A01 T02360120  RH  048%=      5-min Rain = 0
KCA2 160735Z 30008KT 24/12 A2976 RMK A01 T02350120  RH  048%=      5-min Rain = 0
KCA2 160736Z 29009KT 24/12 A2976 RMK A01 T02350120  RH  048%=      5-min Rain = 0
KCA2 160737Z 29009KT 24/12 A2976 RMK A01 T02350121  RH  049%=      5-min Rain = 0
KCA2 160738Z 29009KT 24/12 A2976 RMK A01 T02350121  RH  049%=      5-min Rain = 0
KCA2 160739Z 29008KT 24/12 A2976 RMK A01 T02350121  RH  049%=      5-min Rain = 0
KCA2 160740Z 29009KT 24/12 A2976 RMK A01 T02350121  RH  049%=      5-min Rain = 0
KCA2 160741Z 29008KT 24/12 A2976 RMK A01 T02350121  RH  049%=      5-min Rain = 0
KCA2 160742Z 28008KT 23/12 A2976 RMK A01 T02340121  RH  049%=      5-min Rain = 0
KCA2 160743Z 29009KT 23/12 A2976 RMK A01 T02340121  RH  049%=      5-min Rain = 0
KCA2 160744Z 29009KT 23/12 A2976 RMK A01 T02340121  RH  049%=      5-min Rain = 0
KCA2 160745Z 29010KT 23/12 A2976 RMK A01 T02330121  RH  049%=      5-min Rain = 0
KCA2 160746Z 29009KT 23/12 A2976 RMK A01 T02330121  RH  049%=      5-min Rain = 0
KCA2 160747Z 29009KT 23/12 A2976 RMK A01 T02330121  RH  049%=      5-min Rain = 0
KCA2 160748Z 29010KT 23/12 A2976 RMK A01 T02330123  RH  050%=      5-min Rain = 0
KCA2 160749Z 29010KT 23/12 A2976 RMK A01 T02330122  RH  050%=      5-min Rain = 0
KCA2 160750Z 30009KT 23/12 A2976 RMK A01 T02320123  RH  050%=      5-min Rain = 0
KCA2 160751Z 29010KT 23/12 A2976 RMK A01 T02320123  RH  050%=      5-min Rain = 0
KCA2 160752Z 29009KT 23/12 A2976 RMK A01 T02320124  RH  050%=      5-min Rain = 0
KCA2 160753Z 29010KT 23/12 A2976 RMK A01 T02320124  RH  051%=      5-min Rain = 0
KCA2 160754Z 29010KT 23/13 A2976 RMK A01 T02320125  RH  051%=      5-min Rain = 0
KCA2 160755Z 30009KT 23/13 A2976 RMK A01 T02310125  RH  051%=      5-min Rain = 0
KCA2 160756Z 29010KT 23/13 A2976 RMK A01 T02310125  RH  051%=      5-min Rain = 0
KCA2 160757Z 30010KT 23/13 A2976 RMK A01 T02310125  RH  051%=      5-min Rain = 0
KCA2 160758Z 30011KT 23/13 A2976 RMK A01 T02310125  RH  051%=      5-min Rain = 0
KCA2 160759Z 29010KT 23/13 A2976 RMK A01 T02310126  RH  052%=      5-min Rain = 0
KCA2 160800Z 29010KT 23/13 A2976 RMK A01 T02310126  RH  052%=      5-min Rain = 0
KCA2 160801Z 30010KT 23/13 A2976 RMK A01 T02300126  RH  052%=      5-min Rain = 0
KCA2 160802Z 29012KT 23/13 A2976 RMK A01 T02300126  RH  052%=      5-min Rain = 0
KCA2 160803Z 29011KT 23/13 A2976 RMK A01 T02300127  RH  052%=      5-min Rain = 0
KCA2 160804Z 29011KT 23/13 A2976 RMK A01 T02300127  RH  052%=      5-min Rain = 0
KCA2 160805Z 29011KT 23/13 A2976 RMK A01 T02300127  RH  052%=      5-min Rain = 0
KCA2 160806Z 29011KT 23/13 A2976 RMK A01 T02300127  RH  052%=      5-min Rain = 0
KCA2 160807Z 29011KT 23/13 A2976 RMK A01 T02300127  RH  052%=      5-min Rain = 0
KCA2 160808Z 29011KT 23/13 A2976 RMK A01 T02300127  RH  052%=      5-min Rain = 0
KCA2 160809Z 29012KT 23/13 A2976 RMK A01 T02290127  RH  052%=      5-min Rain = 0
KCA2 160810Z 29014KT 23/13 A2976 RMK A01 T02290128  RH  053%=      5-min Rain = 0
KCA2 160811Z 29013KT 23/13 A2976 RMK A01 T02290129  RH  053%=      5-min Rain = 0
KCA2 160812Z 29012KT 23/13 A2976 RMK A01 T02280129  RH  053%=      5-min Rain = 0
KCA2 160813Z 29011KT 23/13 A2977 RMK A01 T02280129  RH  053%=      5-min Rain = 0
KCA2 160814Z 30010KT 23/13 A2977 RMK A01 T02280129  RH  054%=      5-min Rain = 0
KCA2 160815Z 29010KT 23/13 A2976 RMK A01 T02280129  RH  054%=      5-min Rain = 0
KCA2 160816Z 29011KT 23/13 A2976 RMK A01 T02280130  RH  054%=      5-min Rain = 0
KCA2 160817Z 29010KT 23/13 A2976 RMK A01 T02280131  RH  054%=      5-min Rain = 0
KCA2 160818Z 29011KT 23/13 A2976 RMK A01 T02270130  RH  054%=      5-min Rain = 0
KCA2 160819Z 29010KT 23/13 A2976 RMK A01 T02270131  RH  054%=      5-min Rain = 0
KCA2 160820Z 29008KT 23/13 A2976 RMK A01 T02270130  RH  054%=      5-min Rain = 0
KCA2 160821Z 29008KT 23/13 A2976 RMK A01 T02270131  RH  055%=      5-min Rain = 0
KCA2 160822Z 29008KT 23/13 A2976 RMK A01 T02270131  RH  055%=      5-min Rain = 0
KCA2 160823Z 29009KT 23/13 A2976 RMK A01 T02260131  RH  055%=      5-min Rain = 0
KCA2 160824Z 29008KT 23/13 A2976 RMK A01 T02260132  RH  055%=      5-min Rain = 0
KCA2 160825Z 29008KT 23/13 A2976 RMK A01 T02260131  RH  055%=      5-min Rain = 0
KCA2 160826Z 29010KT 23/13 A2976 RMK A01 T02260132  RH  055%=      5-min Rain = 0
KCA2 160827Z 29010KT 23/13 A2976 RMK A01 T02260132  RH  055%=      5-min Rain = 0
KCA2 160828Z 29009KT 23/13 A2976 RMK A01 T02260132  RH  055%=      5-min Rain = 0
KCA2 160829Z 29008KT 23/13 A2976 RMK A01 T02260132  RH  055%=      5-min Rain = 0
KCA2 160830Z 30008KT 23/13 A2976 RMK A01 T02250131  RH  055%=      5-min Rain = 0
KCA2 160831Z 29007KT 23/13 A2977 RMK A01 T02250131  RH  055%=      5-min Rain = 0
KCA2 160832Z 29006KT 23/13 A2977 RMK A01 T02250131  RH  055%=      5-min Rain = 0
KCA2 160833Z 30008KT 23/13 A2977 RMK A01 T02250131  RH  055%=      5-min Rain = 0
KCA2 160834Z 30008KT 23/13 A2976 RMK A01 T02250131  RH  055%=      5-min Rain = 0
KCA2 160835Z 30008KT 23/13 A2976 RMK A01 T02250131  RH  055%=      5-min Rain = 0
KCA2 160836Z 29008KT 23/13 A2976 RMK A01 T02250132  RH  056%=      5-min Rain = 0
KCA2 160837Z 30009KT 23/13 A2976 RMK A01 T02250131  RH  056%=      5-min Rain = 0
KCA2 160838Z 30007KT 23/13 A2977 RMK A01 T02250132  RH  056%=      5-min Rain = 0
KCA2 160839Z 29008KT 23/13 A2977 RMK A01 T02250131  RH  056%=      5-min Rain = 0
KCA2 160840Z 29009KT 22/13 A2977 RMK A01 T02240131  RH  056%=      5-min Rain = 0
KCA2 160841Z 30009KT 22/13 A2976 RMK A01 T02240132  RH  056%=      5-min Rain = 0
KCA2 160842Z 29007KT 22/13 A2977 RMK A01 T02240132  RH  056%=      5-min Rain = 0
KCA2 160843Z 30008KT 22/13 A2977 RMK A01 T02240132  RH  056%=      5-min Rain = 0
KCA2 160844Z 30009KT 22/13 A2977 RMK A01 T02240132  RH  056%=      5-min Rain = 0
KCA2 160845Z 30010KT 22/13 A2977 RMK A01 T02240133  RH  056%=      5-min Rain = 0
KCA2 160846Z 30008KT 22/13 A2977 RMK A01 T02240133  RH  056%=      5-min Rain = 0
KCA2 160847Z 30007KT 23/13 A2977 RMK A01 T02250133  RH  056%=      5-min Rain = 0
KCA2 160848Z 30008KT 23/13 A2977 RMK A01 T02250133  RH  056%=      5-min Rain = 0
KCA2 160849Z 29009KT 23/13 A2977 RMK A01 T02250133  RH  056%=      5-min Rain = 0
KCA2 160850Z 30010KT 23/13 A2977 RMK A01 T02250133  RH  056%=      5-min Rain = 0
KCA2 160851Z 30010KT 23/13 A2977 RMK A01 T02250133  RH  056%=      5-min Rain = 0
KCA2 160852Z 30010KT 23/13 A2977 RMK A01 T02250133  RH  056%=      5-min Rain = 0
KCA2 160853Z 30009KT 23/13 A2976 RMK A01 T02250133  RH  056%=      5-min Rain = 0
KCA2 160854Z 31008KT 23/13 A2976 RMK A01 T02250133  RH  056%=      5-min Rain = 0
KCA2 160855Z 31008KT 23/13 A2976 RMK A01 T02250133  RH  056%=      5-min Rain = 0
KCA2 160856Z 30009KT 22/13 A2976 RMK A01 T02240133  RH  056%=      5-min Rain = 0
KCA2 160857Z 30010KT 22/13 A2976 RMK A01 T02240133  RH  056%=      5-min Rain = 0
KCA2 160858Z 30010KT 22/13 A2976 RMK A01 T02240134  RH  057%=      5-min Rain = 0
KCA2 160859Z 30010KT 22/14 A2976 RMK A01 T02240135  RH  057%=      5-min Rain = 0
KCA2 160900Z 30009KT 22/14 A2976 RMK A01 T02240135  RH  057%=      5-min Rain = 0
KCA2 160901Z 30010KT 23/14 A2976 RMK A01 T02250135  RH  057%=      5-min Rain = 0
KCA2 160902Z 30008KT 22/13 A2976 RMK A01 T02240134  RH  057%=      5-min Rain = 0
KCA2 160903Z 30008KT 22/13 A2976 RMK A01 T02240134  RH  057%=      5-min Rain = 0
KCA2 160904Z 30009KT 22/13 A2976 RMK A01 T02240134  RH  057%=      5-min Rain = 0
KCA2 160905Z 30009KT 22/13 A2976 RMK A01 T02230134  RH  057%=      5-min Rain = 0
KCA2 160906Z 30009KT 22/14 A2976 RMK A01 T02230135  RH  057%=      5-min Rain = 0
KCA2 160907Z 30011KT 22/14 A2977 RMK A01 T02240136  RH  058%=      5-min Rain = 0
KCA2 160908Z 30009KT 22/14 A2977 RMK A01 T02230135  RH  057%=      5-min Rain = 0
KCA2 160909Z 30009KT 22/13 A2977 RMK A01 T02230134  RH  057%=      5-min Rain = 0
KCA2 160910Z 30008KT 22/13 A2977 RMK A01 T02230134  RH  057%=      5-min Rain = 0
KCA2 160911Z 30009KT 22/13 A2977 RMK A01 T02230134  RH  057%=      5-min Rain = 0
KCA2 160912Z 31008KT 22/13 A2977 RMK A01 T02230134  RH  057%=      5-min Rain = 0
KCA2 160913Z 30010KT 22/14 A2976 RMK A01 T02230135  RH  057%=      5-min Rain = 0
KCA2 160914Z 30010KT 22/14 A2976 RMK A01 T02220135  RH  058%=      5-min Rain = 0
KCA2 160915Z 30009KT 22/14 A2977 RMK A01 T02230136  RH  058%=      5-min Rain = 0
KCA2 160916Z 30008KT 22/14 A2976 RMK A01 T02230136  RH  058%=      5-min Rain = 0
KCA2 160917Z 30008KT 22/14 A2977 RMK A01 T02230136  RH  058%=      5-min Rain = 0
KCA2 160918Z 30006KT 22/14 A2977 RMK A01 T02220136  RH  058%=      5-min Rain = 0
KCA2 160919Z 30006KT 22/14 A2977 RMK A01 T02220135  RH  058%=      5-min Rain = 0
KCA2 160920Z 30006KT 22/14 A2977 RMK A01 T02220135  RH  058%=      5-min Rain = 0
KCA2 160921Z 30008KT 22/14 A2977 RMK A01 T02220136  RH  058%=      5-min Rain = 0
KCA2 160922Z 30008KT 22/14 A2977 RMK A01 T02210136  RH  058%=      5-min Rain = 0
KCA2 160923Z 30009KT 22/14 A2977 RMK A01 T02210136  RH  059%=      5-min Rain = 0
KCA2 160924Z 30008KT 22/14 A2977 RMK A01 T02210136  RH  059%=      5-min Rain = 0
KCA2 160925Z 30006KT 22/14 A2977 RMK A01 T02210137  RH  059%=      5-min Rain = 0
KCA2 160926Z 31006KT 22/14 A2977 RMK A01 T02210137  RH  059%=      5-min Rain = 0
KCA2 160927Z 31008KT 22/14 A2977 RMK A01 T02210137  RH  059%=      5-min Rain = 0
KCA2 160928Z 30007KT 22/14 A2977 RMK A01 T02210137  RH  059%=      5-min Rain = 0
KCA2 160929Z 30006KT 22/14 A2977 RMK A01 T02210137  RH  059%=      5-min Rain = 0
KCA2 160930Z 30007KT 22/14 A2977 RMK A01 T02210137  RH  059%=      5-min Rain = 0
KCA2 160931Z 29006KT 22/14 A2977 RMK A01 T02210137  RH  059%=      5-min Rain = 0
KCA2 160932Z 30007KT 22/14 A2977 RMK A01 T02210138  RH  059%=      5-min Rain = 0
KCA2 160933Z 29005KT 22/14 A2977 RMK A01 T02210138  RH  059%=      5-min Rain = 0
KCA2 160934Z 30006KT 22/14 A2977 RMK A01 T02210137  RH  059%=      5-min Rain = 0
KCA2 160935Z 30006KT 22/14 A2977 RMK A01 T02210138  RH  059%=      5-min Rain = 0
KCA2 160936Z 30007KT 22/14 A2977 RMK A01 T02210138  RH  059%=      5-min Rain = 0
KCA2 160937Z 31008KT 22/14 A2977 RMK A01 T02210139  RH  060%=      5-min Rain = 0
KCA2 160938Z 30008KT 22/14 A2977 RMK A01 T02210138  RH  060%=      5-min Rain = 0
KCA2 160939Z 30008KT 22/14 A2977 RMK A01 T02210138  RH  060%=      5-min Rain = 0
KCA2 160940Z 30007KT 22/14 A2977 RMK A01 T02210138  RH  059%=      5-min Rain = 0
KCA2 160941Z 30008KT 22/14 A2977 RMK A01 T02210138  RH  059%=      5-min Rain = 0
KCA2 160942Z 30009KT 22/14 A2977 RMK A01 T02210138  RH  060%=      5-min Rain = 0
KCA2 160943Z 30009KT 22/14 A2977 RMK A01 T02200138  RH  060%=      5-min Rain = 0
KCA2 160944Z 30009KT 22/14 A2977 RMK A01 T02200139  RH  060%=      5-min Rain = 0
KCA2 160945Z 30010KT 22/14 A2977 RMK A01 T02200139  RH  060%=      5-min Rain = 0
KCA2 160946Z 30011KT 22/14 A2977 RMK A01 T02200139  RH  060%=      5-min Rain = 0
KCA2 160947Z 30011KT 22/14 A2977 RMK A01 T02200139  RH  060%=      5-min Rain = 0
KCA2 160948Z 30010KT 22/14 A2977 RMK A01 T02200140  RH  060%=      5-min Rain = 0
KCA2 160949Z 30010KT 22/14 A2977 RMK A01 T02200140  RH  060%=      5-min Rain = 0
KCA2 160950Z 30010KT 22/14 A2977 RMK A01 T02210140  RH  060%=      5-min Rain = 0
KCA2 160951Z 29009KT 22/14 A2977 RMK A01 T02210140  RH  060%=      5-min Rain = 0
KCA2 160952Z 28009KT 22/14 A2977 RMK A01 T02210140  RH  060%=      5-min Rain = 0
KCA2 160953Z 29008KT 22/14 A2977 RMK A01 T02210140  RH  060%=      5-min Rain = 0
KCA2 160954Z 29008KT 22/14 A2977 RMK A01 T02210140  RH  060%=      5-min Rain = 0
KCA2 160955Z 29009KT 22/14 A2977 RMK A01 T02210139  RH  060%=      5-min Rain = 0
KCA2 160956Z 29008KT 22/14 A2977 RMK A01 T02210139  RH  060%=      5-min Rain = 0
KCA2 160957Z 29008KT 22/14 A2977 RMK A01 T02210139  RH  060%=      5-min Rain = 0
KCA2 160958Z 30009KT 22/14 A2977 RMK A01 T02210139  RH  060%=      5-min Rain = 0
KCA2 160959Z 29008KT 22/14 A2977 RMK A01 T02210139  RH  060%=      5-min Rain = 0
KCA2 161000Z 29008KT 22/14 A2977 RMK A01 T02210139  RH  060%=      5-min Rain = 0
KCA2 161001Z 30008KT 22/14 A2977 RMK A01 T02210139  RH  059%=      5-min Rain = 0
KCA2 161002Z 30006KT 22/14 A2977 RMK A01 T02210138  RH  059%=      5-min Rain = 0
KCA2 161003Z 29006KT 22/14 A2977 RMK A01 T02210138  RH  059%=      5-min Rain = 0
KCA2 161004Z 29008KT 22/14 A2977 RMK A01 T02210138  RH  059%=      5-min Rain = 0
KCA2 161005Z 29007KT 22/14 A2977 RMK A01 T02210138  RH  059%=      5-min Rain = 0
KCA2 161006Z 29007KT 22/14 A2977 RMK A01 T02210138  RH  059%=      5-min Rain = 0
KCA2 161007Z 29007KT 22/14 A2977 RMK A01 T02210138  RH  059%=      5-min Rain = 0
KCA2 161008Z 28007KT 22/14 A2977 RMK A01 T02200137  RH  059%=      5-min Rain = 0
KCA2 161009Z 29007KT 22/14 A2977 RMK A01 T02200138  RH  059%=      5-min Rain = 0
KCA2 161010Z 29007KT 22/14 A2977 RMK A01 T02200138  RH  060%=      5-min Rain = 0
KCA2 161011Z 29007KT 22/14 A2977 RMK A01 T02200138  RH  060%=      5-min Rain = 0
KCA2 161012Z 29008KT 22/14 A2977 RMK A01 T02190139  RH  060%=      5-min Rain = 0
KCA2 161013Z 29007KT 22/14 A2977 RMK A01 T02190140  RH  060%=      5-min Rain = 0
KCA2 161014Z 28006KT 22/14 A2977 RMK A01 T02190140  RH  061%=      5-min Rain = 0
KCA2 161015Z 28005KT 22/14 A2977 RMK A01 T02190140  RH  061%=      5-min Rain = 0
KCA2 161016Z 28007KT 22/14 A2977 RMK A01 T02190139  RH  061%=      5-min Rain = 0
KCA2 161017Z 28007KT 22/14 A2977 RMK A01 T02180139  RH  061%=      5-min Rain = 0
KCA2 161018Z 28007KT 22/14 A2977 RMK A01 T02180139  RH  061%=      5-min Rain = 0
KCA2 161019Z 28006KT 22/14 A2977 RMK A01 T02180140  RH  061%=      5-min Rain = 0
KCA2 161020Z 28007KT 22/14 A2977 RMK A01 T02170140  RH  061%=      5-min Rain = 0
KCA2 161021Z 28007KT 22/14 A2977 RMK A01 T02170140  RH  062%=      5-min Rain = 0
KCA2 161022Z 28005KT 22/14 A2977 RMK A01 T02170140  RH  062%=      5-min Rain = 0
KCA2 161023Z 28006KT 22/14 A2977 RMK A01 T02170141  RH  062%=      5-min Rain = 0
KCA2 161024Z 28006KT 22/14 A2977 RMK A01 T02160140  RH  062%=      5-min Rain = 0
KCA2 161025Z 28007KT 22/14 A2977 RMK A01 T02160141  RH  062%=      5-min Rain = 0
KCA2 161026Z 28007KT 22/14 A2977 RMK A01 T02160141  RH  062%=      5-min Rain = 0
KCA2 161027Z 28006KT 22/14 A2977 RMK A01 T02160141  RH  062%=      5-min Rain = 0
KCA2 161028Z 28005KT 22/14 A2977 RMK A01 T02160141  RH  062%=      5-min Rain = 0
KCA2 161029Z 28006KT 22/14 A2977 RMK A01 T02160141  RH  063%=      5-min Rain = 0
KCA2 161030Z 28006KT 22/14 A2977 RMK A01 T02160141  RH  063%=      5-min Rain = 0
KCA2 161031Z 28006KT 22/14 A2977 RMK A01 T02150142  RH  063%=      5-min Rain = 0
KCA2 161032Z 29006KT 22/14 A2977 RMK A01 T02150142  RH  063%=      5-min Rain = 0
KCA2 161033Z 28006KT 22/14 A2977 RMK A01 T02150141  RH  063%=      5-min Rain = 0
KCA2 161034Z 29005KT 22/14 A2977 RMK A01 T02150142  RH  063%=      5-min Rain = 0
KCA2 161035Z 29005KT 22/14 A2977 RMK A01 T02150142  RH  063%=      5-min Rain = 0
KCA2 161036Z 29006KT 22/14 A2977 RMK A01 T02150142  RH  063%=      5-min Rain = 0
KCA2 161037Z 28006KT 22/14 A2977 RMK A01 T02150142  RH  063%=      5-min Rain = 0
KCA2 161038Z 29006KT 22/14 A2977 RMK A01 T02150141  RH  063%=      5-min Rain = 0
KCA2 161039Z 29007KT 22/14 A2977 RMK A01 T02150141  RH  063%=      5-min Rain = 0
KCA2 161040Z 29006KT 22/14 A2977 RMK A01 T02150142  RH  063%=      5-min Rain = 0
KCA2 161041Z 29006KT 22/14 A2977 RMK A01 T02150141  RH  063%=      5-min Rain = 0
KCA2 161042Z 29006KT 22/14 A2977 RMK A01 T02150141  RH  063%=      5-min Rain = 0
KCA2 161043Z 29007KT 22/14 A2977 RMK A01 T02150141  RH  063%=      5-min Rain = 0
KCA2 161044Z 29008KT 22/14 A2977 RMK A01 T02150142  RH  063%=      5-min Rain = 0
KCA2 161045Z 29007KT 22/14 A2977 RMK A01 T02150142  RH  063%=      5-min Rain = 0
KCA2 161046Z 29007KT 22/14 A2977 RMK A01 T02150141  RH  063%=      5-min Rain = 0
KCA2 161047Z 29007KT 22/14 A2977 RMK A01 T02150141  RH  063%=      5-min Rain = 0
KCA2 161048Z 29007KT 22/14 A2977 RMK A01 T02150142  RH  063%=      5-min Rain = 0
KCA2 161049Z 29007KT 22/14 A2977 RMK A01 T02150142  RH  063%=      5-min Rain = 0
KCA2 161050Z 30007KT 22/14 A2977 RMK A01 T02150142  RH  063%=      5-min Rain = 0
KCA2 161051Z 30007KT 22/14 A2977 RMK A01 T02150142  RH  063%=      5-min Rain = 0
KCA2 161052Z 30007KT 22/14 A2977 RMK A01 T02150141  RH  063%=      5-min Rain = 0
KCA2 161053Z 30008KT 22/14 A2977 RMK A01 T02150141  RH  063%=      5-min Rain = 0
KCA2 161054Z 31007KT 22/14 A2977 RMK A01 T02150141  RH  063%=      5-min Rain = 0
KCA2 161055Z 29006KT 22/14 A2977 RMK A01 T02150141  RH  063%=      5-min Rain = 0
KCA2 161056Z 29007KT 22/14 A2977 RMK A01 T02160141  RH  063%=      5-min Rain = 0
KCA2 161057Z 30008KT 22/14 A2977 RMK A01 T02150141  RH  063%=      5-min Rain = 0
KCA2 161058Z 30007KT 22/14 A2977 RMK A01 T02150141  RH  063%=      5-min Rain = 0
KCA2 161059Z 30007KT 22/14 A2977 RMK A01 T02150141  RH  063%=      5-min Rain = 0
KCA2 161100Z 29006KT 22/14 A2977 RMK A01 T02150141  RH  063%=      5-min Rain = 0
KCA2 161101Z 30005KT 22/14 A2977 RMK A01 T02150141  RH  063%=      5-min Rain = 0
KCA2 161102Z 29006KT 22/14 A2977 RMK A01 T02160141  RH  063%=      5-min Rain = 0
KCA2 161103Z 30005KT 22/14 A2976 RMK A01 T02150141  RH  063%=      5-min Rain = 0
KCA2 161104Z 29005KT 22/14 A2976 RMK A01 T02150141  RH  063%=      5-min Rain = 0
KCA2 161105Z 29007KT 22/14 A2976 RMK A01 T02150141  RH  063%=      5-min Rain = 0
KCA2 161106Z 29006KT 22/14 A2976 RMK A01 T02150141  RH  063%=      5-min Rain = 0
KCA2 161107Z 29005KT 22/14 A2976 RMK A01 T02150141  RH  063%=      5-min Rain = 0
KCA2 161108Z 29005KT 22/14 A2977 RMK A01 T02150141  RH  063%=      5-min Rain = 0
KCA2 161109Z 29006KT 22/14 A2977 RMK A01 T02150141  RH  063%=      5-min Rain = 0
KCA2 161110Z 29005KT 21/14 A2977 RMK A01 T02140141  RH  063%=      5-min Rain = 0
KCA2 161111Z 28006KT 21/14 A2977 RMK A01 T02140141  RH  063%=      5-min Rain = 0
KCA2 161112Z 28006KT 21/14 A2977 RMK A01 T02140141  RH  063%=      5-min Rain = 0
KCA2 161113Z 28006KT 21/14 A2977 RMK A01 T02140141  RH  063%=      5-min Rain = 0
KCA2 161114Z 28006KT 21/14 A2977 RMK A01 T02140141  RH  063%=      5-min Rain = 0
KCA2 161115Z 28007KT 21/14 A2977 RMK A01 T02140141  RH  063%=      5-min Rain = 0
KCA2 161116Z 29008KT 21/14 A2977 RMK A01 T02140142  RH  063%=      5-min Rain = 0
KCA2 161117Z 29006KT 21/14 A2977 RMK A01 T02140142  RH  064%=      5-min Rain = 0
KCA2 161118Z 30006KT 21/14 A2977 RMK A01 T02140142  RH  063%=      5-min Rain = 0
KCA2 161119Z 30006KT 21/14 A2977 RMK A01 T02140142  RH  063%=      5-min Rain = 0
KCA2 161120Z 30007KT 21/14 A2977 RMK A01 T02140142  RH  063%=      5-min Rain = 0
KCA2 161121Z 30008KT 21/14 A2977 RMK A01 T02140142  RH  064%=      5-min Rain = 0
KCA2 161122Z 29008KT 21/14 A2977 RMK A01 T02140142  RH  064%=      5-min Rain = 0
KCA2 161123Z 30008KT 21/14 A2977 RMK A01 T02140142  RH  064%=      5-min Rain = 0
KCA2 161124Z 30007KT 21/14 A2978 RMK A01 T02140142  RH  064%=      5-min Rain = 0
KCA2 161125Z 30006KT 21/14 A2977 RMK A01 T02140142  RH  064%=      5-min Rain = 0
KCA2 161126Z 30007KT 21/14 A2977 RMK A01 T02140142  RH  064%=      5-min Rain = 0
KCA2 161127Z 31008KT 21/14 A2977 RMK A01 T02130142  RH  064%=      5-min Rain = 0
KCA2 161128Z 31005KT 21/14 A2977 RMK A01 T02130142  RH  064%=      5-min Rain = 0
KCA2 161129Z 31006KT 21/14 A2977 RMK A01 T02130142  RH  064%=      5-min Rain = 0
KCA2 161130Z 31006KT 21/14 A2977 RMK A01 T02140142  RH  064%=      5-min Rain = 0
KCA2 161131Z 30004KT 21/14 A2977 RMK A01 T02140143  RH  064%=      5-min Rain = 0
KCA2 161132Z 30006KT 21/14 A2977 RMK A01 T02140143  RH  064%=      5-min Rain = 0
KCA2 161133Z 30006KT 21/14 A2977 RMK A01 T02140143  RH  064%=      5-min Rain = 0
KCA2 161134Z 29006KT 21/14 A2977 RMK A01 T02140143  RH  064%=      5-min Rain = 0
KCA2 161135Z 30004KT 21/14 A2977 RMK A01 T02140143  RH  064%=      5-min Rain = 0
KCA2 161136Z 30006KT 21/14 A2977 RMK A01 T02140143  RH  064%=      5-min Rain = 0
KCA2 161137Z 30006KT 21/14 A2977 RMK A01 T02140144  RH  064%=      5-min Rain = 0
KCA2 161138Z 31005KT 21/14 A2978 RMK A01 T02140143  RH  064%=      5-min Rain = 0
KCA2 161139Z 31005KT 21/14 A2978 RMK A01 T02140144  RH  064%=      5-min Rain = 0
KCA2 161140Z 31004KT 21/14 A2978 RMK A01 T02140144  RH  064%=      5-min Rain = 0
KCA2 161141Z 31004KT 22/14 A2978 RMK A01 T02150144  RH  064%=      5-min Rain = 0
KCA2 161142Z 31004KT 21/14 A2978 RMK A01 T02140143  RH  064%=      5-min Rain = 0
KCA2 161143Z 31005KT 21/14 A2978 RMK A01 T02140143  RH  064%=      5-min Rain = 0
KCA2 161144Z 31004KT 21/14 A2978 RMK A01 T02140144  RH  064%=      5-min Rain = 0
KCA2 161145Z 32004KT 21/14 A2978 RMK A01 T02130143  RH  064%=      5-min Rain = 0
KCA2 161146Z 31004KT 21/14 A2978 RMK A01 T02130143  RH  064%=      5-min Rain = 0
KCA2 161147Z 30005KT 21/14 A2978 RMK A01 T02130143  RH  065%=      5-min Rain = 0
KCA2 161148Z 31005KT 21/14 A2978 RMK A01 T02130144  RH  065%=      5-min Rain = 0
KCA2 161149Z 31005KT 21/14 A2978 RMK A01 T02130144  RH  065%=      5-min Rain = 0
KCA2 161150Z 32006KT 21/14 A2978 RMK A01 T02130144  RH  065%=      5-min Rain = 0
KCA2 161151Z 30006KT 21/14 A2978 RMK A01 T02130144  RH  065%=      5-min Rain = 0
KCA2 161152Z 31006KT 21/14 A2978 RMK A01 T02130144  RH  065%=      5-min Rain = 0
KCA2 161153Z 30007KT 21/15 A2978 RMK A01 T02130145  RH  065%=      5-min Rain = 0
KCA2 161154Z 30006KT 21/15 A2978 RMK A01 T02130145  RH  065%=      5-min Rain = 0
KCA2 161155Z 30006KT 21/15 A2978 RMK A01 T02130145  RH  065%=      5-min Rain = 0
KCA2 161156Z 30006KT 21/14 A2979 RMK A01 T02130144  RH  065%=      5-min Rain = 0
KCA2 161157Z 31006KT 21/15 A2979 RMK A01 T02130145  RH  065%=      5-min Rain = 0
KCA2 161158Z 30005KT 21/15 A2979 RMK A01 T02130145  RH  065%=      5-min Rain = 0
KCA2 161159Z 31005KT 21/15 A2979 RMK A01 T02130145  RH  065%=      5-min Rain = 0
KCA2 161200Z 31005KT 21/14 A2979 RMK A01 T02130144  RH  065%=      5-min Rain = 0
KCA2 161201Z 31005KT 21/14 A2979 RMK A01 T02130144  RH  065%=      5-min Rain = 0
KCA2 161202Z 32004KT 21/14 A2979 RMK A01 T02130144  RH  065%=      5-min Rain = 0
KCA2 161203Z 32004KT 21/14 A2978 RMK A01 T02130144  RH  065%=      5-min Rain = 0
KCA2 161204Z 32004KT 21/14 A2978 RMK A01 T02130144  RH  065%=      5-min Rain = 0
KCA2 161205Z 32003KT 21/14 A2978 RMK A01 T02130144  RH  065%=      5-min Rain = 0
KCA2 161206Z 32003KT 21/14 A2978 RMK A01 T02130143  RH  064%=      5-min Rain = 0
KCA2 161207Z 32003KT 21/14 A2978 RMK A01 T02130143  RH  064%=      5-min Rain = 0
KCA2 161208Z 32003KT 21/14 A2979 RMK A01 T02120143  RH  065%=      5-min Rain = 0
KCA2 161209Z 31003KT 21/14 A2979 RMK A01 T02120143  RH  065%=      5-min Rain = 0
KCA2 161210Z 32003KT 21/14 A2979 RMK A01 T02120143  RH  065%=      5-min Rain = 0
KCA2 161211Z 31003KT 21/14 A2979 RMK A01 T02120143  RH  065%=      5-min Rain = 0
KCA2 161212Z 29004KT 21/14 A2979 RMK A01 T02120143  RH  065%=      5-min Rain = 0
KCA2 161213Z 29004KT 21/14 A2979 RMK A01 T02120144  RH  065%=      5-min Rain = 0
KCA2 161214Z 30004KT 21/14 A2979 RMK A01 T02120143  RH  065%=      5-min Rain = 0
KCA2 161215Z 31003KT 21/14 A2979 RMK A01 T02120143  RH  065%=      5-min Rain = 0
KCA2 161216Z 31003KT 21/14 A2979 RMK A01 T02120143  RH  065%=      5-min Rain = 0
KCA2 161217Z 32004KT 21/14 A2979 RMK A01 T02120143  RH  065%=      5-min Rain = 0
KCA2 161218Z 34003KT 21/14 A2979 RMK A01 T02120143  RH  065%=      5-min Rain = 0
KCA2 161219Z 35003KT 21/14 A2979 RMK A01 T02120142  RH  064%=      5-min Rain = 0
KCA2 161220Z 35004KT 21/14 A2979 RMK A01 T02110141  RH  064%=      5-min Rain = 0
KCA2 161221Z 34004KT 21/14 A2979 RMK A01 T02110142  RH  064%=      5-min Rain = 0
KCA2 161222Z 35003KT 21/14 A2979 RMK A01 T02110142  RH  064%=      5-min Rain = 0
KCA2 161223Z 34004KT 21/14 A2978 RMK A01 T02110141  RH  064%=      5-min Rain = 0
KCA2 161224Z 34003KT 21/14 A2978 RMK A01 T02110142  RH  064%=      5-min Rain = 0
KCA2 161225Z 34003KT 21/14 A2978 RMK A01 T02110142  RH  064%=      5-min Rain = 0
KCA2 161226Z 34003KT 21/14 A2978 RMK A01 T02110142  RH  064%=      5-min Rain = 0
KCA2 161227Z 34003KT 21/14 A2979 RMK A01 T02110141  RH  064%=      5-min Rain = 0
KCA2 161228Z 33003KT 21/14 A2979 RMK A01 T02110141  RH  065%=      5-min Rain = 0
KCA2 161229Z 32003KT 21/14 A2979 RMK A01 T02100141  RH  065%=      5-min Rain = 0
KCA2 161230Z 32004KT 21/14 A2979 RMK A01 T02100141  RH  065%=      5-min Rain = 0
KCA2 161231Z 32004KT 21/14 A2979 RMK A01 T02100142  RH  065%=      5-min Rain = 0
KCA2 161232Z 32003KT 21/14 A2979 RMK A01 T02100141  RH  065%=      5-min Rain = 0
KCA2 161233Z 32004KT 21/14 A2979 RMK A01 T02100141  RH  065%=      5-min Rain = 0
KCA2 161234Z 32004KT 21/14 A2979 RMK A01 T02090140  RH  065%=      5-min Rain = 0
KCA2 161235Z 32004KT 21/14 A2979 RMK A01 T02090140  RH  065%=      5-min Rain = 0
KCA2 161236Z 31004KT 21/14 A2979 RMK A01 T02090140  RH  065%=      5-min Rain = 0
KCA2 161237Z 30004KT 21/14 A2979 RMK A01 T02080139  RH  065%=      5-min Rain = 0
KCA2 161238Z 30003KT 21/14 A2979 RMK A01 T02080138  RH  065%=      5-min Rain = 0
KCA2 161239Z 31004KT 21/14 A2979 RMK A01 T02060138  RH  065%=      5-min Rain = 0
KCA2 161240Z 31004KT 21/14 A2979 RMK A01 T02050138  RH  065%=      5-min Rain = 0
KCA2 161241Z 31004KT 21/14 A2979 RMK A01 T02050138  RH  066%=      5-min Rain = 0
KCA2 161242Z 31004KT 21/14 A2979 RMK A01 T02050139  RH  066%=      5-min Rain = 0
KCA2 161243Z 32004KT 21/14 A2979 RMK A01 T02060140  RH  066%=      5-min Rain = 0
KCA2 161244Z 32004KT 21/14 A2979 RMK A01 T02060139  RH  065%=      5-min Rain = 0
KCA2 161245Z 32004KT 21/14 A2979 RMK A01 T02070139  RH  065%=      5-min Rain = 0
KCA2 161246Z 32004KT 21/14 A2979 RMK A01 T02060139  RH  065%=      5-min Rain = 0
KCA2 161247Z 32004KT 21/14 A2979 RMK A01 T02070139  RH  065%=      5-min Rain = 0
KCA2 161248Z 32004KT 21/14 A2979 RMK A01 T02070139  RH  065%=      5-min Rain = 0
KCA2 161249Z 31004KT 21/14 A2979 RMK A01 T02070139  RH  065%=      5-min Rain = 0
KCA2 161250Z 31004KT 21/14 A2979 RMK A01 T02070139  RH  065%=      5-min Rain = 0
KCA2 161251Z 32003KT 21/14 A2979 RMK A01 T02060138  RH  065%=      5-min Rain = 0
KCA2 161252Z 32003KT 21/14 A2979 RMK A01 T02060138  RH  065%=      5-min Rain = 0
KCA2 161253Z 33003KT 21/14 A2979 RMK A01 T02060139  RH  065%=      5-min Rain = 0
KCA2 161254Z 33003KT 21/14 A2979 RMK A01 T02060139  RH  065%=      5-min Rain = 0
KCA2 161255Z 32002KT 21/14 A2979 RMK A01 T02060139  RH  065%=      5-min Rain = 0
KCA2 161256Z 34001KT 21/14 A2979 RMK A01 T02060139  RH  065%=      5-min Rain = 0
KCA2 161257Z 32002KT 21/14 A2979 RMK A01 T02060139  RH  065%=      5-min Rain = 0
KCA2 161258Z 33001KT 21/14 A2979 RMK A01 T02060139  RH  065%=      5-min Rain = 0
KCA2 161259Z 33002KT 21/14 A2979 RMK A01 T02060139  RH  065%=      5-min Rain = 0
KCA2 161300Z 32002KT 21/14 A2979 RMK A01 T02060139  RH  065%=      5-min Rain = 0
KCA2 161301Z 32001KT 21/14 A2979 RMK A01 T02070140  RH  065%=      5-min Rain = 0
KCA2 161302Z 31001KT 21/14 A2979 RMK A01 T02070139  RH  065%=      5-min Rain = 0
KCA2 161303Z 23002KT 21/14 A298 RMK A01 T02080139  RH  065%=      5-min Rain = 0
KCA2 161304Z 23003KT 21/14 A298 RMK A01 T02070139  RH  065%=      5-min Rain = 0
KCA2 161305Z 24003KT 21/14 A298 RMK A01 T02050138  RH  066%=      5-min Rain = 0
KCA2 161306Z 24003KT 20/14 A298 RMK A01 T02020138  RH  066%=      5-min Rain = 0
KCA2 161307Z 24003KT 20/14 A298 RMK A01 T02010137  RH  067%=      5-min Rain = 0
KCA2 161308Z 25002KT 20/14 A298 RMK A01 T02000137  RH  067%=      5-min Rain = 0
KCA2 161309Z 25002KT 20/14 A298 RMK A01 T02000137  RH  067%=      5-min Rain = 0
KCA2 161310Z 27001KT 20/14 A298 RMK A01 T02000137  RH  067%=      5-min Rain = 0
KCA2 161311Z 28002KT 20/14 A298 RMK A01 T02000137  RH  067%=      5-min Rain = 0
KCA2 161312Z 28002KT 20/14 A298 RMK A01 T02000137  RH  067%=      5-min Rain = 0
KCA2 161313Z 29002KT 20/14 A298 RMK A01 T02000137  RH  067%=      5-min Rain = 0
KCA2 161314Z 29002KT 20/14 A298 RMK A01 T02000138  RH  067%=      5-min Rain = 0
KCA2 161315Z 28002KT 20/14 A298 RMK A01 T02010138  RH  067%=      5-min Rain = 0
KCA2 161316Z 28003KT 20/14 A298 RMK A01 T02010138  RH  067%=      5-min Rain = 0
KCA2 161317Z 28003KT 20/14 A298 RMK A01 T02020138  RH  067%=      5-min Rain = 0
KCA2 161318Z 28003KT 20/14 A298 RMK A01 T02030138  RH  066%=      5-min Rain = 0
KCA2 161319Z 28003KT 20/14 A298 RMK A01 T02040139  RH  066%=      5-min Rain = 0
KCA2 161320Z 29002KT 20/14 A298 RMK A01 T02040140  RH  066%=      5-min Rain = 0
KCA2 161321Z 28001KT 20/14 A298 RMK A01 T02040139  RH  066%=      5-min Rain = 0
KCA2 161322Z 28001KT 21/14 A298 RMK A01 T02050140  RH  066%=      5-min Rain = 0
KCA2 161323Z 30000KT 21/14 A298 RMK A01 T02060139  RH  066%=      5-min Rain = 0
KCA2 161324Z 31001KT 21/14 A298 RMK A01 T02070139  RH  065%=      5-min Rain = 0
KCA2 161325Z 29001KT 21/14 A298 RMK A01 T02080139  RH  065%=      5-min Rain = 0
KCA2 161326Z 30001KT 21/14 A298 RMK A01 T02090140  RH  064%=      5-min Rain = 0
KCA2 161327Z 30001KT 21/14 A298 RMK A01 T02100140  RH  064%=      5-min Rain = 0
KCA2 161328Z 30001KT 21/14 A298 RMK A01 T02110141  RH  064%=      5-min Rain = 0
KCA2 161329Z 32002KT 21/14 A298 RMK A01 T02120141  RH  064%=      5-min Rain = 0
KCA2 161330Z 30003KT 21/14 A298 RMK A01 T02140142  RH  064%=      5-min Rain = 0
KCA2 161331Z 29003KT 22/14 A298 RMK A01 T02160142  RH  063%=      5-min Rain = 0
KCA2 161332Z 29004KT 22/14 A298 RMK A01 T02170141  RH  062%=      5-min Rain = 0
KCA2 161333Z 32004KT 22/14 A2981 RMK A01 T02180141  RH  062%=      5-min Rain = 0
KCA2 161334Z 30003KT 22/14 A2981 RMK A01 T02180142  RH  062%=      5-min Rain = 0
KCA2 161335Z 30005KT 22/14 A2981 RMK A01 T02180141  RH  062%=      5-min Rain = 0
KCA2 161336Z 31006KT 22/14 A2981 RMK A01 T02180141  RH  062%=      5-min Rain = 0
KCA2 161337Z 31006KT 22/14 A2981 RMK A01 T02180143  RH  062%=      5-min Rain = 0
KCA2 161338Z 31007KT 22/14 A2981 RMK A01 T02180144  RH  063%=      5-min Rain = 0
KCA2 161339Z 31005KT 22/14 A2981 RMK A01 T02170144  RH  063%=      5-min Rain = 0
KCA2 161340Z 32005KT 22/14 A2981 RMK A01 T02170144  RH  063%=      5-min Rain = 0
KCA2 161341Z 33004KT 22/14 A2981 RMK A01 T02170144  RH  063%=      5-min Rain = 0
KCA2 161342Z 33005KT 22/14 A2981 RMK A01 T02180144  RH  063%=      5-min Rain = 0
KCA2 161343Z 32005KT 22/15 A2981 RMK A01 T02180145  RH  063%=      5-min Rain = 0
KCA2 161344Z 32006KT 22/14 A2981 RMK A01 T02180144  RH  063%=      5-min Rain = 0
KCA2 161345Z 33006KT 22/14 A2981 RMK A01 T02180144  RH  063%=      5-min Rain = 0
KCA2 161346Z 33006KT 22/15 A2981 RMK A01 T02180145  RH  063%=      5-min Rain = 0
KCA2 161347Z 34006KT 22/15 A2981 RMK A01 T02180145  RH  063%=      5-min Rain = 0
KCA2 161348Z 33005KT 22/14 A2981 RMK A01 T02180144  RH  063%=      5-min Rain = 0
KCA2 161349Z 33005KT 22/14 A2981 RMK A01 T02180144  RH  063%=      5-min Rain = 0
KCA2 161350Z 33004KT 22/14 A2981 RMK A01 T02180144  RH  063%=      5-min Rain = 0
KCA2 161351Z 34005KT 22/14 A2981 RMK A01 T02190144  RH  063%=      5-min Rain = 0
KCA2 161352Z 34004KT 22/14 A2981 RMK A01 T02190144  RH  063%=      5-min Rain = 0
KCA2 161353Z 34004KT 22/14 A2981 RMK A01 T02190144  RH  063%=      5-min Rain = 0
KCA2 161354Z 33004KT 22/15 A2981 RMK A01 T02190145  RH  063%=      5-min Rain = 0
KCA2 161355Z 32004KT 22/15 A2981 RMK A01 T02190145  RH  062%=      5-min Rain = 0
KCA2 161356Z 32004KT 22/14 A2981 RMK A01 T02190144  RH  062%=      5-min Rain = 0
KCA2 161357Z 32005KT 22/14 A2981 RMK A01 T02190144  RH  062%=      5-min Rain = 0
KCA2 161358Z 31005KT 22/14 A2982 RMK A01 T02200144  RH  062%=      5-min Rain = 0
KCA2 161359Z 30005KT 22/14 A2982 RMK A01 T02200143  RH  062%=      5-min Rain = 0
KCA2 161400Z 30004KT 22/14 A2982 RMK A01 T02200142  RH  061%=      5-min Rain = 0
KCA2 161401Z 30005KT 22/14 A2982 RMK A01 T02200142  RH  061%=      5-min Rain = 0
KCA2 161402Z 29004KT 22/14 A2982 RMK A01 T02200142  RH  061%=      5-min Rain = 0
KCA2 161403Z 29003KT 22/14 A2982 RMK A01 T02210142  RH  061%=      5-min Rain = 0
KCA2 161404Z 30003KT 22/14 A2982 RMK A01 T02220142  RH  061%=      5-min Rain = 0
KCA2 161405Z 31003KT 22/14 A2982 RMK A01 T02230143  RH  060%=      5-min Rain = 0
KCA2 161406Z 33004KT 22/14 A2982 RMK A01 T02240144  RH  060%=      5-min Rain = 0
KCA2 161407Z 31004KT 23/14 A2982 RMK A01 T02250144  RH  060%=      5-min Rain = 0
KCA2 161408Z 31005KT 23/14 A2982 RMK A01 T02260143  RH  059%=      5-min Rain = 0
KCA2 161409Z 31005KT 23/14 A2982 RMK A01 T02270143  RH  059%=      5-min Rain = 0
KCA2 161410Z 31005KT 23/14 A2982 RMK A01 T02250142  RH  059%=      5-min Rain = 0
KCA2 161411Z 32004KT 23/14 A2982 RMK A01 T02250142  RH  059%=      5-min Rain = 0
KCA2 161412Z 33007KT 23/14 A2982 RMK A01 T02260142  RH  059%=      5-min Rain = 0
KCA2 161413Z 34006KT 23/14 A2982 RMK A01 T02260142  RH  059%=      5-min Rain = 0
KCA2 161414Z 33007KT 23/14 A2982 RMK A01 T02250141  RH  059%=      5-min Rain = 0
KCA2 161415Z 33006KT 23/14 A2982 RMK A01 T02250142  RH  059%=      5-min Rain = 0
KCA2 161416Z 33005KT 23/14 A2982 RMK A01 T02250142  RH  059%=      5-min Rain = 0
KCA2 161417Z 33004KT 23/14 A2982 RMK A01 T02250142  RH  059%=      5-min Rain = 0
KCA2 161418Z 32004KT 23/14 A2982 RMK A01 T02260142  RH  059%=      5-min Rain = 0
KCA2 161419Z 33005KT 23/14 A2982 RMK A01 T02260142  RH  059%=      5-min Rain = 0
KCA2 161420Z 34005KT 23/14 A2982 RMK A01 T02270142  RH  059%=      5-min Rain = 0
KCA2 161421Z 34006KT 23/14 A2982 RMK A01 T02270142  RH  059%=      5-min Rain = 0
KCA2 161422Z 34006KT 23/14 A2982 RMK A01 T02270142  RH  059%=      5-min Rain = 0
KCA2 161423Z 34006KT 23/14 A2982 RMK A01 T02260142  RH  059%=      5-min Rain = 0
KCA2 161424Z 33005KT 23/14 A2982 RMK A01 T02270142  RH  059%=      5-min Rain = 0
KCA2 161425Z 33005KT 23/14 A2982 RMK A01 T02280142  RH  059%=      5-min Rain = 0
KCA2 161426Z 33004KT 23/14 A2982 RMK A01 T02280142  RH  058%=      5-min Rain = 0
KCA2 161427Z 32005KT 23/14 A2982 RMK A01 T02300142  RH  058%=      5-min Rain = 0
KCA2 161428Z 31003KT 23/14 A2982 RMK A01 T02310142  RH  057%=      5-min Rain = 0
KCA2 161429Z 31004KT 23/14 A2982 RMK A01 T02310143  RH  057%=      5-min Rain = 0
KCA2 161430Z 33004KT 23/14 A2982 RMK A01 T02320143  RH  057%=      5-min Rain = 0
KCA2 161431Z 32004KT 23/14 A2982 RMK A01 T02320142  RH  057%=      5-min Rain = 0
KCA2 161432Z 31003KT 23/14 A2982 RMK A01 T02330143  RH  057%=      5-min Rain = 0
KCA2 161433Z 31004KT 24/14 A2982 RMK A01 T02360143  RH  056%=      5-min Rain = 0
KCA2 161434Z 33004KT 24/14 A2982 RMK A01 T02360143  RH  056%=      5-min Rain = 0
KCA2 161435Z 33004KT 24/14 A2982 RMK A01 T02360143  RH  056%=      5-min Rain = 0
KCA2 161436Z 31004KT 24/14 A2982 RMK A01 T02350143  RH  056%=      5-min Rain = 0
KCA2 161437Z 32002KT 23/14 A2982 RMK A01 T02340143  RH  057%=      5-min Rain = 0
KCA2 161438Z 30002KT 23/14 A2982 RMK A01 T02340143  RH  057%=      5-min Rain = 0
KCA2 161439Z 33002KT 24/14 A2982 RMK A01 T02350143  RH  057%=      5-min Rain = 0
KCA2 161440Z 33003KT 24/14 A2982 RMK A01 T02360144  RH  056%=      5-min Rain = 0
KCA2 161441Z 32003KT 24/14 A2982 RMK A01 T02370143  RH  056%=      5-min Rain = 0
KCA2 161442Z 35004KT 24/14 A2982 RMK A01 T02370143  RH  056%=      5-min Rain = 0
KCA2 161443Z 01003KT 24/14 A2982 RMK A01 T02370142  RH  055%=      5-min Rain = 0
KCA2 161444Z 36002KT 24/14 A2982 RMK A01 T02370142  RH  055%=      5-min Rain = 0
KCA2 161445Z 36003KT 24/14 A2982 RMK A01 T02380143  RH  055%=      5-min Rain = 0
KCA2 161446Z 35004KT 24/14 A2982 RMK A01 T02400142  RH  054%=      5-min Rain = 0
KCA2 161447Z 33005KT 24/14 A2982 RMK A01 T02400142  RH  054%=      5-min Rain = 0
KCA2 161448Z 32002KT 24/14 A2982 RMK A01 T02380141  RH  055%=      5-min Rain = 0
KCA2 161449Z 32005KT 24/14 A2982 RMK A01 T02370140  RH  055%=      5-min Rain = 0
KCA2 161450Z 30004KT 24/14 A2982 RMK A01 T02370141  RH  055%=      5-min Rain = 0
KCA2 161451Z 30002KT 24/14 A2982 RMK A01 T02360141  RH  055%=      5-min Rain = 0
KCA2 161452Z 33005KT 24/14 A2982 RMK A01 T02360141  RH  055%=      5-min Rain = 0
KCA2 161453Z 34004KT 24/14 A2982 RMK A01 T02360141  RH  055%=      5-min Rain = 0
KCA2 161454Z 33004KT 24/14 A2982 RMK A01 T02370140  RH  055%=      5-min Rain = 0
KCA2 161455Z 32003KT 24/14 A2982 RMK A01 T02360140  RH  055%=      5-min Rain = 0
KCA2 161456Z 35003KT 24/14 A2982 RMK A01 T02350141  RH  055%=      5-min Rain = 0
KCA2 161457Z 30003KT 24/14 A2982 RMK A01 T02370142  RH  055%=      5-min Rain = 0
KCA2 161458Z 31004KT 24/14 A2982 RMK A01 T02390141  RH  054%=      5-min Rain = 0
KCA2 161459Z 33003KT 24/14 A2982 RMK A01 T02400140  RH  054%=      5-min Rain = 0
KCA2 161500Z 34004KT 24/14 A2982 RMK A01 T02400140  RH  054%=      5-min Rain = 0
KCA2 161501Z 35003KT 24/14 A2982 RMK A01 T02390139  RH  053%=      5-min Rain = 0
KCA2 161502Z 33004KT 24/14 A2982 RMK A01 T02390140  RH  054%=      5-min Rain = 0
KCA2 161503Z 33004KT 24/14 A2982 RMK A01 T02390140  RH  054%=      5-min Rain = 0
KCA2 161504Z 34003KT 24/14 A2982 RMK A01 T02390140  RH  054%=      5-min Rain = 0
KCA2 161505Z 32003KT 24/14 A2982 RMK A01 T02390140  RH  054%=      5-min Rain = 0
KCA2 161506Z 31004KT 24/14 A2982 RMK A01 T02420141  RH  053%=      5-min Rain = 0
KCA2 161507Z 29005KT 25/14 A2982 RMK A01 T02460142  RH  052%=      5-min Rain = 0
KCA2 161508Z 29004KT 25/14 A2982 RMK A01 T02470141  RH  052%=      5-min Rain = 0
KCA2 161509Z 31006KT 25/14 A2982 RMK A01 T02460140  RH  052%=      5-min Rain = 0
KCA2 161510Z 31005KT 24/14 A2982 RMK A01 T02440138  RH  052%=      5-min Rain = 0
KCA2 161511Z 31003KT 24/14 A2982 RMK A01 T02420138  RH  052%=      5-min Rain = 0
KCA2 161512Z 30002KT 24/14 A2982 RMK A01 T02410138  RH  052%=      5-min Rain = 0
KCA2 161513Z 30003KT 24/14 A2982 RMK A01 T02420139  RH  053%=      5-min Rain = 0
KCA2 161514Z 32005KT 24/14 A2982 RMK A01 T02430140  RH  052%=      5-min Rain = 0
KCA2 161515Z 33005KT 24/14 A2982 RMK A01 T02440140  RH  052%=      5-min Rain = 0
KCA2 161516Z 31004KT 25/14 A2982 RMK A01 T02450139  RH  051%=      5-min Rain = 0
KCA2 161517Z 31003KT 25/14 A2982 RMK A01 T02450138  RH  051%=      5-min Rain = 0
KCA2 161518Z 31005KT 25/14 A2982 RMK A01 T02450137  RH  051%=      5-min Rain = 0
KCA2 161519Z 31005KT 24/14 A2982 RMK A01 T02440137  RH  051%=      5-min Rain = 0
KCA2 161520Z 33003KT 24/14 A2982 RMK A01 T02430136  RH  051%=      5-min Rain = 0
KCA2 161521Z 29004KT 24/14 A2982 RMK A01 T02430137  RH  051%=      5-min Rain = 0
KCA2 161522Z 29005KT 24/14 A2982 RMK A01 T02440138  RH  051%=      5-min Rain = 0
KCA2 161523Z 30005KT 25/14 A2982 RMK A01 T02450138  RH  051%=      5-min Rain = 0
KCA2 161524Z 33003KT 25/14 A2982 RMK A01 T02460139  RH  051%=      5-min Rain = 0
KCA2 161525Z 32004KT 25/14 A2982 RMK A01 T02470139  RH  051%=      5-min Rain = 0
KCA2 161526Z 30003KT 25/14 A2982 RMK A01 T02470139  RH  051%=      5-min Rain = 0
KCA2 161527Z 32004KT 25/14 A2982 RMK A01 T02490140  RH  051%=      5-min Rain = 0
KCA2 161528Z 32004KT 25/14 A2982 RMK A01 T02510138  RH  049%=      5-min Rain = 0
KCA2 161529Z 32005KT 25/14 A2982 RMK A01 T02510138  RH  049%=      5-min Rain = 0
KCA2 161530Z 32005KT 25/14 A2982 RMK A01 T02520138  RH  049%=      5-min Rain = 0
KCA2 161531Z 30004KT 25/14 A2982 RMK A01 T02500137  RH  050%=      5-min Rain = 0
KCA2 161532Z 30002KT 25/14 A2982 RMK A01 T02480137  RH  050%=      5-min Rain = 0
KCA2 161533Z 30005KT 25/14 A2982 RMK A01 T02480136  RH  050%=      5-min Rain = 0
KCA2 161534Z 29004KT 25/14 A2982 RMK A01 T02500136  RH  049%=      5-min Rain = 0
KCA2 161535Z 28004KT 25/14 A2982 RMK A01 T02510137  RH  049%=      5-min Rain = 0
KCA2 161536Z 33004KT 25/14 A2982 RMK A01 T02510138  RH  049%=      5-min Rain = 0
KCA2 161537Z 32003KT 25/14 A2982 RMK A01 T02500137  RH  049%=      5-min Rain = 0
KCA2 161538Z 32004KT 25/14 A2982 RMK A01 T02500136  RH  049%=      5-min Rain = 0
KCA2 161539Z 32005KT 25/14 A2982 RMK A01 T02520135  RH  048%=      5-min Rain = 0
KCA2 161540Z 34004KT 25/14 A2982 RMK A01 T02530135  RH  048%=      5-min Rain = 0
KCA2 161541Z 35004KT 25/14 A2982 RMK A01 T02540136  RH  048%=      5-min Rain = 0
KCA2 161542Z 34004KT 25/14 A2982 RMK A01 T02540137  RH  048%=      5-min Rain = 0
KCA2 161543Z 31004KT 26/14 A2982 RMK A01 T02560136  RH  048%=      5-min Rain = 0
KCA2 161544Z 33004KT 26/14 A2982 RMK A01 T02560136  RH  047%=      5-min Rain = 0
KCA2 161545Z 32004KT 26/14 A2982 RMK A01 T02580137  RH  047%=      5-min Rain = 0
KCA2 161546Z 30004KT 26/14 A2982 RMK A01 T02570137  RH  047%=      5-min Rain = 0
KCA2 161547Z 29003KT 26/14 A2982 RMK A01 T02570136  RH  047%=      5-min Rain = 0
KCA2 161548Z 30005KT 26/14 A2982 RMK A01 T02550136  RH  048%=      5-min Rain = 0
KCA2 161549Z 31005KT 26/14 A2982 RMK A01 T02550137  RH  048%=      5-min Rain = 0
KCA2 161550Z 33004KT 26/14 A2982 RMK A01 T02550138  RH  048%=      5-min Rain = 0
KCA2 161551Z 34003KT 26/14 A2982 RMK A01 T02550136  RH  048%=      5-min Rain = 0
KCA2 161552Z 31003KT 25/14 A2982 RMK A01 T02540135  RH  048%=      5-min Rain = 0
KCA2 161553Z 30004KT 25/14 A2982 RMK A01 T02540135  RH  048%=      5-min Rain = 0
KCA2 161554Z 29005KT 26/14 A2982 RMK A01 T02570135  RH  047%=      5-min Rain = 0
KCA2 161555Z 27004KT 26/13 A2982 RMK A01 T02570132  RH  046%=      5-min Rain = 0
KCA2 161556Z 30006KT 26/13 A2982 RMK A01 T02570133  RH  046%=      5-min Rain = 0
KCA2 161557Z 29006KT 26/13 A2982 RMK A01 T02570131  RH  046%=      5-min Rain = 0
KCA2 161558Z 29005KT 26/13 A2982 RMK A01 T02580131  RH  045%=      5-min Rain = 0
KCA2 161559Z 29004KT 26/13 A2982 RMK A01 T02580132  RH  046%=      5-min Rain = 0
KCA2 161600Z 30004KT 26/13 A2982 RMK A01 T02570134  RH  046%=      5-min Rain = 0
KCA2 161601Z 30003KT 26/13 A2982 RMK A01 T02570134  RH  047%=      5-min Rain = 0
KCA2 161602Z 29004KT 26/14 A2982 RMK A01 T02580135  RH  046%=      5-min Rain = 0
KCA2 161603Z 29005KT 26/14 A2982 RMK A01 T02580135  RH  046%=      5-min Rain = 0
KCA2 161604Z 29004KT 26/13 A2982 RMK A01 T02580134  RH  046%=      5-min Rain = 0
KCA2 161605Z 28004KT 26/13 A2981 RMK A01 T02580134  RH  046%=      5-min Rain = 0
KCA2 161606Z 28004KT 26/14 A2981 RMK A01 T02580135  RH  046%=      5-min Rain = 0
KCA2 161607Z 26003KT 26/14 A2981 RMK A01 T02590135  RH  046%=      5-min Rain = 0
KCA2 161608Z 26003KT 26/14 A2981 RMK A01 T02580135  RH  046%=      5-min Rain = 0
KCA2 161609Z 25001KT 26/14 A2981 RMK A01 T02580135  RH  047%=      5-min Rain = 0
KCA2 161610Z 36002KT 26/13 A2981 RMK A01 T02590134  RH  046%=      5-min Rain = 0
KCA2 161611Z 34004KT 26/13 A2981 RMK A01 T02610131  RH  045%=      5-min Rain = 0
KCA2 161612Z 33005KT 26/13 A2981 RMK A01 T02640132  RH  044%=      5-min Rain = 0
KCA2 161613Z 33004KT 27/13 A2981 RMK A01 T02660131  RH  043%=      5-min Rain = 0
KCA2 161614Z 33005KT 26/13 A2981 RMK A01 T02640131  RH  044%=      5-min Rain = 0
KCA2 161615Z 32005KT 26/13 A2981 RMK A01 T02630131  RH  044%=      5-min Rain = 0
KCA2 161616Z 33004KT 26/13 A2982 RMK A01 T02620128  RH  043%=      5-min Rain = 0
KCA2 161617Z 33004KT 26/13 A2982 RMK A01 T02620128  RH  043%=      5-min Rain = 0
KCA2 161618Z 32005KT 26/13 A2982 RMK A01 T02630128  RH  043%=      5-min Rain = 0
KCA2 161619Z 32006KT 27/13 A2982 RMK A01 T02660127  RH  042%=      5-min Rain = 0
KCA2 161620Z 33004KT 27/13 A2982 RMK A01 T02660126  RH  042%=      5-min Rain = 0
KCA2 161621Z 31004KT 27/13 A2982 RMK A01 T02670126  RH  042%=      5-min Rain = 0
KCA2 161622Z 30004KT 27/12 A2982 RMK A01 T02670123  RH  041%=      5-min Rain = 0
KCA2 161623Z 31003KT 27/12 A2982 RMK A01 T02680121  RH  040%=      5-min Rain = 0
KCA2 161624Z 33004KT 27/12 A2982 RMK A01 T02680123  RH  041%=      5-min Rain = 0
KCA2 161625Z 33006KT 27/12 A2982 RMK A01 T02690123  RH  040%=      5-min Rain = 0
KCA2 161626Z 33004KT 27/12 A2982 RMK A01 T02690123  RH  040%=      5-min Rain = 0
KCA2 161627Z 33004KT 27/13 A2982 RMK A01 T02690125  RH  041%=      5-min Rain = 0
KCA2 161628Z 30004KT 27/13 A2982 RMK A01 T02710127  RH  041%=      5-min Rain = 0
KCA2 161629Z 30006KT 27/13 A2982 RMK A01 T02730130  RH  041%=      5-min Rain = 0
KCA2 161630Z 32004KT 27/13 A2982 RMK A01 T02730130  RH  041%=      5-min Rain = 0
KCA2 161631Z 28004KT 27/13 A2981 RMK A01 T02740126  RH  040%=      5-min Rain = 0
KCA2 161632Z 27002KT 27/13 A2981 RMK A01 T02730125  RH  040%=      5-min Rain = 0
KCA2 161633Z 31003KT 27/13 A2981 RMK A01 T02720126  RH  040%=      5-min Rain = 0
KCA2 161634Z 35004KT 27/13 A2981 RMK A01 T02730127  RH  040%=      5-min Rain = 0
KCA2 161635Z 34006KT 27/13 A2981 RMK A01 T02740126  RH  040%=      5-min Rain = 0
KCA2 161636Z 32006KT 28/12 A2981 RMK A01 T02750121  RH  039%=      5-min Rain = 0
KCA2 161637Z 32005KT 27/12 A2981 RMK A01 T02730120  RH  039%=      5-min Rain = 0
KCA2 161638Z 31006KT 27/12 A2981 RMK A01 T02720120  RH  039%=      5-min Rain = 0
KCA2 161639Z 32005KT 27/12 A2981 RMK A01 T02710119  RH  039%=      5-min Rain = 0
KCA2 161640Z 30005KT 27/12 A2981 RMK A01 T02720122  RH  039%=      5-min Rain = 0
KCA2 161641Z 30006KT 27/13 A2981 RMK A01 T02730125  RH  040%=      5-min Rain = 0
KCA2 161642Z 31004KT 27/13 A2981 RMK A01 T02730126  RH  040%=      5-min Rain = 0
KCA2 161643Z 33004KT 27/13 A2981 RMK A01 T02730125  RH  040%=      5-min Rain = 0
KCA2 161644Z 34006KT 27/12 A2981 RMK A01 T02740123  RH  039%=      5-min Rain = 0
KCA2 161645Z 35006KT 28/12 A2981 RMK A01 T02770122  RH  038%=      5-min Rain = 0
KCA2 161646Z 34006KT 28/12 A2981 RMK A01 T02770124  RH  039%=      5-min Rain = 0
KCA2 161647Z 33007KT 28/12 A2981 RMK A01 T02760121  RH  038%=      5-min Rain = 0
KCA2 161648Z 33007KT 28/11 A2981 RMK A01 T02750114  RH  037%=      5-min Rain = 0
KCA2 161649Z 35005KT 28/11 A2981 RMK A01 T02760111  RH  036%=      5-min Rain = 0
KCA2 161650Z 32007KT 28/11 A2981 RMK A01 T02760110  RH  035%=      5-min Rain = 0
KCA2 161651Z 32008KT 28/10 A2981 RMK A01 T02760104  RH  034%=      5-min Rain = 0
KCA2 161652Z 31008KT 28/10 A2981 RMK A01 T02770104  RH  034%=      5-min Rain = 0
KCA2 161653Z 30007KT 28/11 A2981 RMK A01 T02790106  RH  034%=      5-min Rain = 0
KCA2 161654Z 31008KT 28/11 A2981 RMK A01 T02810108  RH  034%=      5-min Rain = 0
KCA2 161655Z 31007KT 28/11 A2981 RMK A01 T02810109  RH  034%=      5-min Rain = 0
KCA2 161656Z 32007KT 28/11 A2981 RMK A01 T02800108  RH  034%=      5-min Rain = 0
KCA2 161657Z 34006KT 28/11 A2981 RMK A01 T02790108  RH  034%=      5-min Rain = 0
KCA2 161658Z 34007KT 28/10 A2981 RMK A01 T02810101  RH  032%=      5-min Rain = 0
KCA2 161659Z 35008KT 28/10 A2981 RMK A01 T02820098  RH  032%=      5-min Rain = 0
KCA2 161700Z 34006KT 28/10 A298 RMK A01 T02820098  RH  032%=      5-min Rain = 0
KCA2 161701Z 32008KT 28/10 A298 RMK A01 T02810099  RH  032%=      5-min Rain = 0
KCA2 161702Z 33008KT 28/10 A298 RMK A01 T02820098  RH  032%=      5-min Rain = 0
KCA2 161703Z 33008KT 28/10 A298 RMK A01 T02810099  RH  032%=      5-min Rain = 0
KCA2 161704Z 32009KT 28/10 A298 RMK A01 T02830098  RH  031%=      5-min Rain = 0
KCA2 161705Z 31008KT 29/10 A298 RMK A01 T02850096  RH  031%=      5-min Rain = 0
KCA2 161706Z 31007KT 29/09 A298 RMK A01 T02860092  RH  030%=      5-min Rain = 0
KCA2 161707Z 30009KT 28/09 A298 RMK A01 T02840090  RH  030%=      5-min Rain = 0
KCA2 161708Z 30008KT 28/09 A298 RMK A01 T02840088  RH  029%=      5-min Rain = 0
KCA2 161709Z 30006KT 29/09 A298 RMK A01 T02850085  RH  029%=      5-min Rain = 0
KCA2 161710Z 31005KT 28/09 A298 RMK A01 T02840085  RH  029%=      5-min Rain = 0
KCA2 161711Z 32007KT 29/09 A298 RMK A01 T02850085  RH  028%=      5-min Rain = 0
KCA2 161712Z 33005KT 29/09 A298 RMK A01 T02880085  RH  028%=      5-min Rain = 0
KCA2 161713Z 30006KT 29/07 A298 RMK A01 T02900072  RH  025%=      5-min Rain = 0
KCA2 161714Z 32007KT 29/06 A298 RMK A01 T02920057  RH  023%=      5-min Rain = 0
KCA2 161715Z 33007KT 30/07 A298 RMK A01 T02960072  RH  025%=      5-min Rain = 0
KCA2 161716Z 33006KT 29/08 A298 RMK A01 T02940077  RH  026%=      5-min Rain = 0
KCA2 161717Z 33006KT 29/08 A298 RMK A01 T02910076  RH  026%=      5-min Rain = 0
KCA2 161718Z 34006KT 29/06 A298 RMK A01 T02940059  RH  023%=      5-min Rain = 0
KCA2 161719Z 36007KT 30/04 A298 RMK A01 T02970043  RH  020%=      5-min Rain = 0
KCA2 161720Z 35006KT 29/04 A298 RMK A01 T02940040  RH  020%=      5-min Rain = 0
KCA2 161721Z 32005KT 29/04 A298 RMK A01 T02930043  RH  020%=      5-min Rain = 0
KCA2 161722Z 33007KT 29/05 A298 RMK A01 T02940048  RH  021%=      5-min Rain = 0
KCA2 161723Z 32008KT 30/04 A298 RMK A01 T02960041  RH  020%=      5-min Rain = 0
KCA2 161724Z 32009KT 30/02 A298 RMK A01 T02950015  RH  017%=      5-min Rain = 0
KCA2 161725Z 31008KT 29/01 A298 RMK A01 T02940013  RH  016%=      5-min Rain = 0
KCA2 161726Z 32006KT 30/02 A298 RMK A01 T02950024  RH  018%=      5-min Rain = 0
KCA2 161727Z 33008KT 30/04 A298 RMK A01 T02990036  RH  019%=      5-min Rain = 0
KCA2 161728Z 32006KT 30/04 A2979 RMK A01 T02980044  RH  020%=      5-min Rain = 0
KCA2 161729Z 32007KT 30/05 A2979 RMK A01 T02970045  RH  020%=      5-min Rain = 0
KCA2 161730Z 31005KT 30/05 A2979 RMK A01 T02970048  RH  021%=      5-min Rain = 0
KCA2 161731Z 32005KT 30/05 A2979 RMK A01 T02980051  RH  021%=      5-min Rain = 0
KCA2 161732Z 33010KT 30/05 A2979 RMK A01 T02990045  RH  020%=      5-min Rain = 0
KCA2 161733Z 33008KT 30/04 A2979 RMK A01 T02980041  RH  020%=      5-min Rain = 0
KCA2 161734Z 33006KT 30/04 A2979 RMK A01 T02950040  RH  020%=      5-min Rain = 0
KCA2 161735Z 34005KT 29/04 A2979 RMK A01 T02940040  RH  020%=      5-min Rain = 0
KCA2 161736Z 34008KT 29/04 A2979 RMK A01 T02940039  RH  020%=      5-min Rain = 0
KCA2 161737Z 00006KT 29/04 A2979 RMK A01 T02940038  RH  020%=      5-min Rain = 0
KCA2 161738Z 32005KT 30/04 A2979 RMK A01 T02950036  RH  019%=      5-min Rain = 0
KCA2 161739Z 33007KT 30/04 A2979 RMK A01 T02980035  RH  019%=      5-min Rain = 0
KCA2 161740Z 33006KT 30/03 A2979 RMK A01 T03000029  RH  018%=      5-min Rain = 0
KCA2 161741Z 33005KT 30/03 A2979 RMK A01 T02990031  RH  018%=      5-min Rain = 0
KCA2 161742Z 31004KT 30/03 A2979 RMK A01 T02990029  RH  018%=      5-min Rain = 0
KCA2 161743Z 31005KT 30/03 A2979 RMK A01 T02970028  RH  018%=      5-min Rain = 0
KCA2 161744Z 34005KT 30/03 A2979 RMK A01 T02970026  RH  018%=      5-min Rain = 0
KCA2 161745Z 34006KT 30/03 A2979 RMK A01 T02960025  RH  018%=      5-min Rain = 0
KCA2 161746Z 34008KT 30/03 A2978 RMK A01 T02960028  RH  018%=      5-min Rain = 0
KCA2 161747Z 36009KT 30/03 A2978 RMK A01 T02980029  RH  018%=      5-min Rain = 0
KCA2 161748Z 35010KT 30/03 A2978 RMK A01 T03010026  RH  017%=      5-min Rain = 0
KCA2 161749Z 33008KT 30/02 A2978 RMK A01 T03020022  RH  017%=      5-min Rain = 0
KCA2 161750Z 31006KT 30/02 A2979 RMK A01 T03020024  RH  017%=      5-min Rain = 0
KCA2 161751Z 31005KT 30/02 A2979 RMK A01 T03000023  RH  017%=      5-min Rain = 0
KCA2 161752Z 32004KT 30/02 A2979 RMK A01 T03000018  RH  016%=      5-min Rain = 0
KCA2 161753Z 33004KT 30/02 A2979 RMK A01 T02990015  RH  016%=      5-min Rain = 0
KCA2 161754Z 32002KT 30/02 A2978 RMK A01 T02980018  RH  017%=      5-min Rain = 0
KCA2 161755Z 09001KT 30/02 A2978 RMK A01 T02980019  RH  017%=      5-min Rain = 0
KCA2 161756Z 32005G10KT 30/02 A2978 RMK A01 T02980020  RH  017%=      5-min Rain = 0
KCA2 161757Z 31007KT 30/02 A2978 RMK A01 T03000017  RH  016%=      5-min Rain = 0
KCA2 161758Z 32003KT 30/01 A2979 RMK A01 T02980012  RH  016%=      5-min Rain = 0
KCA2 161759Z 26001KT 30/01 A2978 RMK A01 T02970012  RH  016%=      5-min Rain = 0
KCA2 161800Z 31001KT 30/02 A2978 RMK A01 T02980015  RH  016%=      5-min Rain = 0
KCA2 161801Z 30004KT 30/02 A2978 RMK A01 T03020016  RH  016%=      5-min Rain = 0
KCA2 161802Z 28004KT 30/01 A2978 RMK A01 T03040014  RH  016%=      5-min Rain = 0
KCA2 161803Z 28005KT 31/01 A2978 RMK A01 T03060011  RH  015%=      5-min Rain = 0
KCA2 161804Z 27004KT 30/01 A2978 RMK A01 T03040011  RH  015%=      5-min Rain = 0
KCA2 161805Z 27005KT 30/01 A2978 RMK A01 T03020010  RH  015%=      5-min Rain = 0
KCA2 161806Z 27006KT 30/01 A2978 RMK A01 T03010013  RH  016%=      5-min Rain = 0
KCA2 161807Z 34005KT 30/02 A2978 RMK A01 T03010015  RH  016%=      5-min Rain = 0
KCA2 161808Z 01008KT 30/01 A2978 RMK A01 T03020012  RH  016%=      5-min Rain = 0
KCA2 161809Z 02006KT 30/01 A2978 RMK A01 T03010010  RH  015%=      5-min Rain = 0
KCA2 161810Z 03004KT 30/01 A2978 RMK A01 T03000009  RH  015%=      5-min Rain = 0
KCA2 161811Z 06003KT 30/01 A2978 RMK A01 T02980007  RH  015%=      5-min Rain = 0
KCA2 161812Z 01003KT 30/01 A2978 RMK A01 T02970008  RH  016%=      5-min Rain = 0
KCA2 161813Z 03002KT 30/01 A2978 RMK A01 T02970008  RH  016%=      5-min Rain = 0
KCA2 161814Z 32001KT 30/01 A2977 RMK A01 T02980008  RH  015%=      5-min Rain = 0
KCA2 161815Z 36002KT 30/01 A2977 RMK A01 T02980008  RH  015%=      5-min Rain = 0
KCA2 161816Z 01003KT 30/00 A2977 RMK A01 T02990002  RH  015%=      5-min Rain = 0
KCA2 161817Z 01005KT 30/01 A2977 RMK A01 T03010005  RH  015%=      5-min Rain = 0
KCA2 161818Z 33006KT 30/01 A2977 RMK A01 T03020008  RH  015%=      5-min Rain = 0
KCA2 161819Z 33008KT 30/M00 A2977 RMK A01 T03031002  RH  014%=      5-min Rain = 0
KCA2 161820Z 32009KT 30/M00 A2977 RMK A01 T03041004  RH  014%=      5-min Rain = 0
KCA2 161821Z 31007KT 30/M00 A2977 RMK A01 T03041002  RH  014%=      5-min Rain = 0
KCA2 161822Z 32006KT 31/M00 A2977 RMK A01 T03061002  RH  014%=      5-min Rain = 0
KCA2 161823Z 32005KT 31/M00 A2977 RMK A01 T03061001  RH  014%=      5-min Rain = 0
KCA2 161824Z 35008KT 31/00 A2977 RMK A01 T03050000  RH  014%=      5-min Rain = 0
KCA2 161825Z 35005KT 31/M00 A2977 RMK A01 T03051002  RH  014%=      5-min Rain = 0
KCA2 161826Z 00004KT 30/M00 A2977 RMK A01 T03041002  RH  014%=      5-min Rain = 0
KCA2 161827Z 00007KT 31/M00 A2977 RMK A01 T03051001  RH  014%=      5-min Rain = 0
KCA2 161828Z 36006KT 31/M01 A2977 RMK A01 T03071005  RH  013%=      5-min Rain = 0
KCA2 161829Z 36004KT 31/M01 A2977 RMK A01 T03051007  RH  013%=      5-min Rain = 0
KCA2 161830Z 36003KT 30/M01 A2977 RMK A01 T03031006  RH  014%=      5-min Rain = 0
KCA2 161831Z 01006KT 30/M00 A2977 RMK A01 T03031004  RH  014%=      5-min Rain = 0
KCA2 161832Z 01005KT 31/M01 A2977 RMK A01 T03051008  RH  013%=      5-min Rain = 0
KCA2 161833Z 33004KT 31/M01 A2977 RMK A01 T03051009  RH  013%=      5-min Rain = 0
KCA2 161834Z 29006KT 31/M01 A2977 RMK A01 T03081006  RH  013%=      5-min Rain = 0
KCA2 161835Z 32006KT 31/M01 A2977 RMK A01 T03091007  RH  013%=      5-min Rain = 0
KCA2 161836Z 34009KT 31/M01 A2977 RMK A01 T03101006  RH  013%=      5-min Rain = 0
KCA2 161837Z 34010KT 31/M01 A2977 RMK A01 T03101007  RH  013%=      5-min Rain = 0
KCA2 161838Z 35008KT 31/M01 A2977 RMK A01 T03091009  RH  013%=      5-min Rain = 0
KCA2 161839Z 00005KT 31/M01 A2977 RMK A01 T03081013  RH  013%=      5-min Rain = 0
KCA2 161840Z 36003KT 31/M01 A2977 RMK A01 T03071012  RH  013%=      5-min Rain = 0
KCA2 161841Z 35008KT 31/M01 A2977 RMK A01 T03081011  RH  013%=      5-min Rain = 0
KCA2 161842Z 00007KT 31/M01 A2977 RMK A01 T03091010  RH  013%=      5-min Rain = 0
KCA2 161843Z 00006KT 31/M01 A2977 RMK A01 T03111009  RH  013%=      5-min Rain = 0
KCA2 161844Z 01005KT 31/M01 A2977 RMK A01 T03091012  RH  013%=      5-min Rain = 0
KCA2 161845Z 05004KT 31/M01 A2977 RMK A01 T03061013  RH  013%=      5-min Rain = 0
KCA2 161846Z 02005KT 31/M01 A2977 RMK A01 T03051014  RH  013%=      5-min Rain = 0
KCA2 161847Z 01004KT 30/M01 A2977 RMK A01 T03041014  RH  013%=      5-min Rain = 0
KCA2 161848Z 02006KT 31/M01 A2977 RMK A01 T03051014  RH  013%=      5-min Rain = 0
KCA2 161849Z 03004KT 31/M02 A2977 RMK A01 T03071015  RH  012%=      5-min Rain = 0
KCA2 161850Z 35007KT 31/M01 A2977 RMK A01 T03091013  RH  012%=      5-min Rain = 0
KCA2 161851Z 33008KT 31/M02 A2977 RMK A01 T03121018  RH  012%=      5-min Rain = 0
KCA2 161852Z 34006KT 32/M02 A2977 RMK A01 T03151019  RH  011%=      5-min Rain = 0
KCA2 161853Z 31009KT 32/M02 A2977 RMK A01 T03161018  RH  012%=      5-min Rain = 0
KCA2 161854Z 31009KT 32/M02 A2977 RMK A01 T03161018  RH  012%=      5-min Rain = 0
KCA2 161855Z 31007KT 31/M02 A2977 RMK A01 T03141019  RH  012%=      5-min Rain = 0
KCA2 161856Z 29007KT 31/M02 A2977 RMK A01 T03131021  RH  012%=      5-min Rain = 0
KCA2 161857Z 29008KT 32/M02 A2977 RMK A01 T03151016  RH  012%=      5-min Rain = 0
KCA2 161858Z 29008KT 32/M02 A2977 RMK A01 T03151017  RH  012%=      5-min Rain = 0
KCA2 161859Z 27007KT 31/M02 A2977 RMK A01 T03131017  RH  012%=      5-min Rain = 0
KCA2 161900Z 29008KT 31/M02 A2977 RMK A01 T03131015  RH  012%=      5-min Rain = 0
KCA2 161901Z 30006KT 31/M02 A2977 RMK A01 T03141017  RH  012%=      5-min Rain = 0
KCA2 161902Z 26005KT 31/M02 A2977 RMK A01 T03141018  RH  012%=      5-min Rain = 0
KCA2 161903Z 29005KT 31/M01 A2977 RMK A01 T03141014  RH  012%=      5-min Rain = 0
KCA2 161904Z 30007KT 32/M02 A2976 RMK A01 T03151016  RH  012%=      5-min Rain = 0
KCA2 161905Z 30005KT 32/M02 A2976 RMK A01 T03151018  RH  012%=      5-min Rain = 0
KCA2 161906Z 32007KT 32/M02 A2976 RMK A01 T03171018  RH  011%=      5-min Rain = 0
KCA2 161907Z 33007KT 32/M02 A2976 RMK A01 T03171021  RH  011%=      5-min Rain = 0
KCA2 161908Z 34006KT 32/M03 A2976 RMK A01 T03171025  RH  011%=      5-min Rain = 0
KCA2 161909Z 33006KT 32/M03 A2976 RMK A01 T03171026  RH  011%=      5-min Rain = 0
KCA2 161910Z 32008KT 32/M03 A2976 RMK A01 T03151026  RH  011%=      5-min Rain = 0
KCA2 161911Z 31006KT 32/M03 A2976 RMK A01 T03151030  RH  011%=      5-min Rain = 0
KCA2 161912Z 31006KT 31/M03 A2976 RMK A01 T03131028  RH  011%=      5-min Rain = 0
KCA2 161913Z 32004KT 31/M03 A2976 RMK A01 T03131025  RH  011%=      5-min Rain = 0
KCA2 161914Z 35007KT 31/M02 A2976 RMK A01 T03141024  RH  011%=      5-min Rain = 0
KCA2 161915Z 34006KT 32/M02 A2976 RMK A01 T03171019  RH  011%=      5-min Rain = 0
KCA2 161916Z 33005KT 32/M02 A2976 RMK A01 T03201017  RH  011%=      5-min Rain = 0
KCA2 161917Z 35005KT 32/M02 A2976 RMK A01 T03201017  RH  011%=      5-min Rain = 0
KCA2 161918Z 36005KT 32/M02 A2976 RMK A01 T03191018  RH  011%=      5-min Rain = 0
KCA2 161919Z 32005KT 32/M02 A2976 RMK A01 T03191018  RH  011%=      5-min Rain = 0
KCA2 161920Z 26004KT 32/M02 A2975 RMK A01 T03201020  RH  011%=      5-min Rain = 0
KCA2 161921Z 28005KT 32/M02 A2975 RMK A01 T03191020  RH  011%=      5-min Rain = 0
KCA2 161922Z 26007KT 32/M02 A2975 RMK A01 T03201022  RH  011%=      5-min Rain = 0
KCA2 161923Z 28006KT 32/M02 A2975 RMK A01 T03181023  RH  011%=      5-min Rain = 0
KCA2 161924Z 29007KT 32/M02 A2975 RMK A01 T03181022  RH  011%=      5-min Rain = 0
KCA2 161925Z 29005KT 32/M03 A2975 RMK A01 T03161025  RH  011%=      5-min Rain = 0
KCA2 161926Z 28005KT 31/M02 A2975 RMK A01 T03141024  RH  011%=      5-min Rain = 0
KCA2 161927Z 24006KT 31/M02 A2975 RMK A01 T03131023  RH  011%=      5-min Rain = 0
KCA2 161928Z 23006KT 31/M02 A2975 RMK A01 T03141024  RH  011%=      5-min Rain = 0
KCA2 161929Z 24005KT 31/M02 A2975 RMK A01 T03121024  RH  011%=      5-min Rain = 0
KCA2 161930Z 27003KT 31/M02 A2975 RMK A01 T03121022  RH  011%=      5-min Rain = 0
KCA2 161931Z 31002KT 31/M02 A2975 RMK A01 T03121023  RH  011%=      5-min Rain = 0
KCA2 161932Z 30001KT 31/M02 A2975 RMK A01 T03121022  RH  011%=      5-min Rain = 0
KCA2 161933Z 29002KT 31/M02 A2975 RMK A01 T03141022  RH  011%=      5-min Rain = 0
KCA2 161934Z 29004KT 32/M02 A2975 RMK A01 T03151023  RH  011%=      5-min Rain = 0
KCA2 161935Z 31004KT 32/M02 A2975 RMK A01 T03161022  RH  011%=      5-min Rain = 0
KCA2 161936Z 33003KT 32/M02 A2975 RMK A01 T03191022  RH  011%=      5-min Rain = 0
KCA2 161937Z 33004KT 32/M02 A2975 RMK A01 T03191024  RH  011%=      5-min Rain = 0
KCA2 161938Z 33006KT 32/M02 A2975 RMK A01 T03181024  RH  011%=      5-min Rain = 0
KCA2 161939Z 32005KT 32/M02 A2975 RMK A01 T03171023  RH  011%=      5-min Rain = 0
KCA2 161940Z 34004KT 32/M02 A2975 RMK A01 T03171023  RH  011%=      5-min Rain = 0
KCA2 161941Z 26003KT 32/M02 A2975 RMK A01 T03191020  RH  011%=      5-min Rain = 0
KCA2 161942Z 28004KT 32/M02 A2975 RMK A01 T03241016  RH  011%=      5-min Rain = 0
KCA2 161943Z 29008KT 33/M02 A2975 RMK A01 T03261017  RH  011%=      5-min Rain = 0
KCA2 161944Z 31007KT 33/M02 A2975 RMK A01 T03271019  RH  011%=      5-min Rain = 0
KCA2 161945Z 30009KT 33/M02 A2975 RMK A01 T03261022  RH  011%=      5-min Rain = 0
KCA2 161946Z 32006KT 32/M03 A2975 RMK A01 T03201026  RH  011%=      5-min Rain = 0
KCA2 161947Z 32005KT 32/M03 A2975 RMK A01 T03151025  RH  011%=      5-min Rain = 0
KCA2 161948Z 31005KT 32/M02 A2975 RMK A01 T03151023  RH  011%=      5-min Rain = 0
KCA2 161949Z 27006KT 32/M02 A2974 RMK A01 T03161022  RH  011%=      5-min Rain = 0
KCA2 161950Z 27006KT 32/M02 A2974 RMK A01 T03161022  RH  011%=      5-min Rain = 0
KCA2 161951Z 26006KT 32/M03 A2974 RMK A01 T03161026  RH  011%=      5-min Rain = 0
KCA2 161952Z 26004KT 31/M03 A2974 RMK A01 T03131027  RH  011%=      5-min Rain = 0
KCA2 161953Z 27004KT 31/M03 A2974 RMK A01 T03121025  RH  011%=      5-min Rain = 0
KCA2 161954Z 28004KT 31/M03 A2974 RMK A01 T03141025  RH  011%=      5-min Rain = 0
KCA2 161955Z 29004KT 32/M03 A2974 RMK A01 T03151026  RH  011%=      5-min Rain = 0
KCA2 161956Z 26004KT 31/M03 A2974 RMK A01 T03131026  RH  011%=      5-min Rain = 0
KCA2 161957Z 24003KT 31/M02 A2974 RMK A01 T03141023  RH  011%=      5-min Rain = 0
KCA2 161958Z 24005KT 32/M02 A2974 RMK A01 T03161021  RH  011%=      5-min Rain = 0
KCA2 161959Z 25006KT 32/M02 A2974 RMK A01 T03161020  RH  011%=      5-min Rain = 0
KCA2 162000Z 26004KT 32/M02 A2974 RMK A01 T03161021  RH  011%=      5-min Rain = 0
KCA2 162001Z 25007KT 31/M02 A2974 RMK A01 T03141021  RH  011%=      5-min Rain = 0
KCA2 162002Z 25008KT 31/M02 A2974 RMK A01 T03131021  RH  011%=      5-min Rain = 0
KCA2 162003Z 25005KT 31/M02 A2974 RMK A01 T03131022  RH  011%=      5-min Rain = 0
KCA2 162004Z 25004KT 31/M02 A2974 RMK A01 T03121022  RH  011%=      5-min Rain = 0
KCA2 162005Z 26005KT 31/M02 A2974 RMK A01 T03111021  RH  012%=      5-min Rain = 0
KCA2 162006Z 25004KT 31/M02 A2974 RMK A01 T03121019  RH  012%=      5-min Rain = 0
KCA2 162007Z 24002KT 31/M02 A2974 RMK A01 T03121020  RH  012%=      5-min Rain = 0
KCA2 162008Z 28003KT 31/M02 A2974 RMK A01 T03101019  RH  012%=      5-min Rain = 0
KCA2 162009Z 29003KT 31/M02 A2974 RMK A01 T03101018  RH  012%=      5-min Rain = 0
KCA2 162010Z 20003KT 31/M02 A2974 RMK A01 T03111018  RH  012%=      5-min Rain = 0
KCA2 162011Z 19002KT 31/M02 A2974 RMK A01 T03111019  RH  012%=      5-min Rain = 0
KCA2 162012Z 20002KT 31/M02 A2974 RMK A01 T03121018  RH  012%=      5-min Rain = 0
KCA2 162013Z 21003KT 31/M02 A2974 RMK A01 T03121016  RH  012%=      5-min Rain = 0
KCA2 162014Z 23003KT 31/M02 A2974 RMK A01 T03121017  RH  012%=      5-min Rain = 0
KCA2 162015Z 24004KT 31/M02 A2974 RMK A01 T03141016  RH  012%=      5-min Rain = 0
KCA2 162016Z 22004KT 32/M02 A2974 RMK A01 T03151016  RH  012%=      5-min Rain = 0
KCA2 162017Z 24004KT 32/M02 A2974 RMK A01 T03161017  RH  012%=      5-min Rain = 0
KCA2 162018Z 22004KT 32/M02 A2974 RMK A01 T03151016  RH  012%=      5-min Rain = 0
KCA2 162019Z 22004KT 31/M02 A2973 RMK A01 T03141017  RH  012%=      5-min Rain = 0
KCA2 162020Z 21005KT 31/M02 A2973 RMK A01 T03131017  RH  012%=      5-min Rain = 0
KCA2 162021Z 21003KT 31/M02 A2973 RMK A01 T03131017  RH  012%=      5-min Rain = 0
KCA2 162022Z 21003KT 31/M02 A2973 RMK A01 T03131017  RH  012%=      5-min Rain = 0
KCA2 162023Z 22003KT 31/M02 A2973 RMK A01 T03131016  RH  012%=      5-min Rain = 0
KCA2 162024Z 18002KT 31/M02 A2973 RMK A01 T03141017  RH  012%=      5-min Rain = 0
KCA2 162025Z 18003KT 32/M02 A2973 RMK A01 T03151018  RH  012%=      5-min Rain = 0
KCA2 162026Z 17003KT 31/M02 A2973 RMK A01 T03141020  RH  012%=      5-min Rain = 0
KCA2 162027Z 14002KT 31/M02 A2973 RMK A01 T03121018  RH  012%=      5-min Rain = 0
KCA2 162028Z 16002KT 31/M02 A2973 RMK A01 T03131017  RH  012%=      5-min Rain = 0
KCA2 162029Z 14001KT 32/M02 A2973 RMK A01 T03151016  RH  012%=      5-min Rain = 0
KCA2 162030Z 13002KT 32/M02 A2973 RMK A01 T03151017  RH  012%=      5-min Rain = 0
KCA2 162031Z 16003KT 32/M02 A2973 RMK A01 T03161016  RH  012%=      5-min Rain = 0
KCA2 162032Z 17003KT 32/M02 A2973 RMK A01 T03161016  RH  012%=      5-min Rain = 0
KCA2 162033Z 20003KT 32/M02 A2973 RMK A01 T03161016  RH  012%=      5-min Rain = 0
KCA2 162034Z 21002KT 32/M02 A2973 RMK A01 T03171017  RH  012%=      5-min Rain = 0
KCA2 162035Z 22002KT 32/M02 A2973 RMK A01 T03181018  RH  011%=      5-min Rain = 0
KCA2 162036Z 18004KT 32/M02 A2973 RMK A01 T03171016  RH  012%=      5-min Rain = 0
KCA2 162037Z 19003KT 32/M02 A2972 RMK A01 T03181019  RH  011%=      5-min Rain = 0
KCA2 162038Z 20003KT 32/M02 A2972 RMK A01 T03181019  RH  011%=      5-min Rain = 0
KCA2 162039Z 20003KT 32/M02 A2972 RMK A01 T03171022  RH  011%=      5-min Rain = 0
KCA2 162040Z 18003KT 32/M02 A2972 RMK A01 T03171020  RH  011%=      5-min Rain = 0
KCA2 162041Z 21003KT 32/M02 A2972 RMK A01 T03161020  RH  011%=      5-min Rain = 0
KCA2 162042Z 22004KT 32/M02 A2972 RMK A01 T03171020  RH  011%=      5-min Rain = 0
KCA2 162043Z 22003KT 32/M02 A2972 RMK A01 T03161021  RH  011%=      5-min Rain = 0
KCA2 162044Z 22002KT 32/M02 A2972 RMK A01 T03151021  RH  011%=      5-min Rain = 0
KCA2 162045Z 21003KT 31/M02 A2972 RMK A01 T03141021  RH  011%=      5-min Rain = 0
KCA2 162046Z 21003KT 32/M02 A2972 RMK A01 T03151022  RH  011%=      5-min Rain = 0
KCA2 162047Z 23002KT 32/M02 A2972 RMK A01 T03161021  RH  011%=      5-min Rain = 0
KCA2 162048Z 21003KT 32/M02 A2972 RMK A01 T03161022  RH  011%=      5-min Rain = 0
KCA2 162049Z 23003KT 32/M02 A2972 RMK A01 T03161023  RH  011%=      5-min Rain = 0
KCA2 162050Z 24002KT 32/M02 A2972 RMK A01 T03151024  RH  011%=      5-min Rain = 0
KCA2 162051Z 25002KT 31/M02 A2972 RMK A01 T03141022  RH  011%=      5-min Rain = 0
KCA2 162052Z 28001KT 31/M02 A2972 RMK A01 T03141022  RH  011%=      5-min Rain = 0
KCA2 162053Z 30001KT 32/M02 A2972 RMK A01 T03151022  RH  011%=      5-min Rain = 0
KCA2 162054Z 30001KT 32/M02 A2972 RMK A01 T03161023  RH  011%=      5-min Rain = 0
KCA2 162055Z 27001KT 32/M02 A2972 RMK A01 T03161023  RH  011%=      5-min Rain = 0
KCA2 162056Z 19000KT 32/M02 A2972 RMK A01 T03161023  RH  011%=      5-min Rain = 0
KCA2 162057Z 29002KT 32/M02 A2972 RMK A01 T03181022  RH  011%=      5-min Rain = 0
KCA2 162058Z 29002KT 32/M02 A2972 RMK A01 T03191021  RH  011%=      5-min Rain = 0
KCA2 162059Z 31003KT 32/M02 A2972 RMK A01 T03191022  RH  011%=      5-min Rain = 0
KCA2 162100Z 31002KT 32/M02 A2972 RMK A01 T03181022  RH  011%=      5-min Rain = 0
KCA2 162101Z 01001KT 32/M02 A2972 RMK A01 T03171022  RH  011%=      5-min Rain = 0
KCA2 162102Z 03001KT 32/M02 A2972 RMK A01 T03171022  RH  011%=      5-min Rain = 0
KCA2 162103Z 14002KT 32/M02 A2972 RMK A01 T03171022  RH  011%=      5-min Rain = 0
KCA2 162104Z 14002KT 32/M02 A2972 RMK A01 T03181020  RH  011%=      5-min Rain = 0
KCA2 162105Z 16002KT 32/M02 A2972 RMK A01 T03191020  RH  011%=      5-min Rain = 0
KCA2 162106Z 13002KT 32/M02 A2972 RMK A01 T03211021  RH  011%=      5-min Rain = 0
KCA2 162107Z 14003KT 32/M02 A2972 RMK A01 T03211022  RH  011%=      5-min Rain = 0
KCA2 162108Z 17002KT 32/M02 A2971 RMK A01 T03201022  RH  011%=      5-min Rain = 0
KCA2 162109Z 14001KT 32/M02 A2971 RMK A01 T03191021  RH  011%=      5-min Rain = 0
KCA2 162110Z 18001KT 32/M02 A2971 RMK A01 T03191022  RH  011%=      5-min Rain = 0
KCA2 162111Z 15000KT 32/M02 A2971 RMK A01 T03201023  RH  011%=      5-min Rain = 0
KCA2 162112Z 07000KT 32/M02 A2971 RMK A01 T03201022  RH  011%=      5-min Rain = 0
KCA2 162113Z 35001KT 32/M02 A2971 RMK A01 T03201021  RH  011%=      5-min Rain = 0
KCA2 162114Z 28002G7KT 32/M02 A2971 RMK A01 T03221022  RH  011%=      5-min Rain = 0
KCA2 162115Z 30006KT 32/M02 A2971 RMK A01 T03241022  RH  011%=      5-min Rain = 0
KCA2 162116Z 30005KT 32/M02 A2971 RMK A01 T03241024  RH  011%=      5-min Rain = 0
KCA2 162117Z 31003KT 32/M03 A2971 RMK A01 T03231025  RH  011%=      5-min Rain = 0
KCA2 162118Z 31003KT 32/M03 A2971 RMK A01 T03231028  RH  010%=      5-min Rain = 0
KCA2 162119Z 30004KT 32/M03 A2971 RMK A01 T03221033  RH  010%=      5-min Rain = 0
KCA2 162120Z 30002KT 32/M04 A2971 RMK A01 T03221035  RH  010%=      5-min Rain = 0
KCA2 162121Z 34001KT 32/M04 A2971 RMK A01 T03211038  RH  010%=      5-min Rain = 0
KCA2 162122Z 34003KT 32/M03 A2971 RMK A01 T03211034  RH  010%=      5-min Rain = 0
KCA2 162123Z 33004KT 32/M04 A2971 RMK A01 T03211035  RH  010%=      5-min Rain = 0
KCA2 162124Z 33006KT 32/M03 A2971 RMK A01 T03211032  RH  010%=      5-min Rain = 0
KCA2 162125Z 31005KT 32/M03 A2971 RMK A01 T03211030  RH  010%=      5-min Rain = 0
KCA2 162126Z 33003KT 32/M03 A2971 RMK A01 T03231029  RH  010%=      5-min Rain = 0
KCA2 162127Z 33004KT 33/M03 A2971 RMK A01 T03261026  RH  010%=      5-min Rain = 0
KCA2 162128Z 36004KT 33/M03 A2971 RMK A01 T03281028  RH  010%=      5-min Rain = 0
KCA2 162129Z 32005KT 33/M03 A2971 RMK A01 T03271027  RH  010%=      5-min Rain = 0
KCA2 162130Z 31006KT 33/M03 A297 RMK A01 T03271028  RH  010%=      5-min Rain = 0
KCA2 162131Z 31007KT 33/M03 A297 RMK A01 T03291027  RH  010%=      5-min Rain = 0
KCA2 162132Z 30008KT 33/M03 A297 RMK A01 T03301026  RH  010%=      5-min Rain = 0
KCA2 162133Z 30008KT 33/M03 A297 RMK A01 T03331026  RH  010%=      5-min Rain = 0
KCA2 162134Z 30006KT 33/M03 A297 RMK A01 T03331026  RH  010%=      5-min Rain = 0
KCA2 162135Z 36004KT 33/M02 A297 RMK A01 T03341024  RH  010%=      5-min Rain = 0
KCA2 162136Z 01007KT 34/M03 A297 RMK A01 T03361025  RH  010%=      5-min Rain = 0
KCA2 162137Z 00004KT 33/M03 A297 RMK A01 T03321028  RH  010%=      5-min Rain = 0
KCA2 162138Z 35004KT 33/M03 A297 RMK A01 T03301028  RH  010%=      5-min Rain = 0
KCA2 162139Z 35004KT 33/M03 A297 RMK A01 T03291028  RH  010%=      5-min Rain = 0
KCA2 162140Z 31006KT 33/M03 A297 RMK A01 T03281027  RH  010%=      5-min Rain = 0
KCA2 162141Z 32005KT 33/M03 A297 RMK A01 T03291026  RH  010%=      5-min Rain = 0
KCA2 162142Z 32005KT 33/M03 A297 RMK A01 T03291027  RH  010%=      5-min Rain = 0
KCA2 162143Z 32005KT 33/M03 A297 RMK A01 T03291025  RH  010%=      5-min Rain = 0
KCA2 162144Z 33006KT 33/M03 A297 RMK A01 T03301026  RH  010%=      5-min Rain = 0
KCA2 162145Z 33004KT 33/M03 A297 RMK A01 T03271028  RH  010%=      5-min Rain = 0
KCA2 162146Z 34003KT 33/M03 A297 RMK A01 T03251028  RH  010%=      5-min Rain = 0
KCA2 162147Z 33004KT 33/M03 A297 RMK A01 T03251027  RH  010%=      5-min Rain = 0
KCA2 162148Z 31006KT 33/M03 A297 RMK A01 T03261025  RH  010%=      5-min Rain = 0
KCA2 162149Z 34004KT 33/M02 A297 RMK A01 T03281024  RH  010%=      5-min Rain = 0
KCA2 162150Z 00003KT 33/M03 A297 RMK A01 T03301025  RH  010%=      5-min Rain = 0
KCA2 162151Z 00007KT 33/M03 A297 RMK A01 T03301025  RH  010%=      5-min Rain = 0
KCA2 162152Z 36007KT 33/M03 A297 RMK A01 T03311027  RH  010%=      5-min Rain = 0
KCA2 162153Z 34006KT 33/M03 A297 RMK A01 T03311027  RH  010%=      5-min Rain = 0
KCA2 162154Z 33006KT 33/M03 A297 RMK A01 T03311027  RH  010%=      5-min Rain = 0
KCA2 162155Z 34005KT 33/M03 A2969 RMK A01 T03291029  RH  010%=      5-min Rain = 0
KCA2 162156Z 36005KT 33/M03 A297 RMK A01 T03281028  RH  010%=      5-min Rain = 0
KCA2 162157Z 01007KT 33/M03 A2969 RMK A01 T03281028  RH  010%=      5-min Rain = 0
KCA2 162158Z 02006KT 33/M03 A2969 RMK A01 T03271028  RH  010%=      5-min Rain = 0
KCA2 162159Z 02006KT 33/M03 A2969 RMK A01 T03271028  RH  010%=      5-min Rain = 0
KCA2 162200Z 03005KT 33/M03 A2969 RMK A01 T03291028  RH  010%=      5-min Rain = 0
KCA2 162201Z 34005KT 33/M03 A2969 RMK A01 T03321026  RH  010%=      5-min Rain = 0
KCA2 162202Z 32008KT 34/M03 A2969 RMK A01 T03351025  RH  010%=      5-min Rain = 0
KCA2 162203Z 32006KT 34/M03 A2969 RMK A01 T03371026  RH  010%=      5-min Rain = 0
KCA2 162204Z 35005KT 34/M03 A2969 RMK A01 T03391025  RH  010%=      5-min Rain = 0
KCA2 162205Z 34007KT 34/M03 A2969 RMK A01 T03391027  RH  009%=      5-min Rain = 0
KCA2 162206Z 35007KT 34/M03 A2969 RMK A01 T03361029  RH  009%=      5-min Rain = 0
KCA2 162207Z 00008KT 34/M03 A2969 RMK A01 T03351028  RH  010%=      5-min Rain = 0
KCA2 162208Z 00005KT 33/M03 A2969 RMK A01 T03331029  RH  010%=      5-min Rain = 0
KCA2 162209Z 01005KT 33/M03 A2969 RMK A01 T03331029  RH  010%=      5-min Rain = 0
KCA2 162210Z 01007KT 33/M03 A2969 RMK A01 T03341029  RH  010%=      5-min Rain = 0
KCA2 162211Z 01008KT 33/M03 A2969 RMK A01 T03341028  RH  010%=      5-min Rain = 0
KCA2 162212Z 01007KT 33/M03 A2969 RMK A01 T03331030  RH  010%=      5-min Rain = 0
KCA2 162213Z 35008KT 33/M03 A2969 RMK A01 T03321029  RH  010%=      5-min Rain = 0
KCA2 162214Z 35007KT 33/M03 A2969 RMK A01 T03341029  RH  010%=      5-min Rain = 0
KCA2 162215Z 35006KT 33/M03 A2969 RMK A01 T03341029  RH  010%=      5-min Rain = 0
KCA2 162216Z 35005KT 33/M03 A2969 RMK A01 T03341030  RH  010%=      5-min Rain = 0
KCA2 162217Z 34005KT 34/M03 A2969 RMK A01 T03351030  RH  009%=      5-min Rain = 0
KCA2 162218Z 34003KT 34/M03 A2969 RMK A01 T03361030  RH  009%=      5-min Rain = 0
KCA2 162219Z 01002KT 34/M03 A2969 RMK A01 T03351031  RH  009%=      5-min Rain = 0
KCA2 162220Z 33008KT 34/M03 A2969 RMK A01 T03351031  RH  009%=      5-min Rain = 0
KCA2 162221Z 30007KT 34/M03 A2969 RMK A01 T03351029  RH  010%=      5-min Rain = 0
KCA2 162222Z 30006KT 34/M03 A2969 RMK A01 T03361028  RH  010%=      5-min Rain = 0
KCA2 162223Z 30008KT 34/M03 A2969 RMK A01 T03391026  RH  010%=      5-min Rain = 0
KCA2 162224Z 29007KT 34/M03 A2969 RMK A01 T03401027  RH  009%=      5-min Rain = 0
KCA2 162225Z 30006KT 34/M03 A2969 RMK A01 T03411027  RH  009%=      5-min Rain = 0
KCA2 162226Z 30006KT 34/M03 A2969 RMK A01 T03411027  RH  009%=      5-min Rain = 0
KCA2 162227Z 28004KT 34/M03 A2969 RMK A01 T03421027  RH  009%=      5-min Rain = 0
KCA2 162228Z 26003KT 35/M03 A2969 RMK A01 T03451027  RH  009%=      5-min Rain = 0
KCA2 162229Z 29003KT 35/M03 A2968 RMK A01 T03451028  RH  009%=      5-min Rain = 0
KCA2 162230Z 28002KT 35/M03 A2968 RMK A01 T03461027  RH  009%=      5-min Rain = 0
KCA2 162231Z 30001KT 35/M03 A2968 RMK A01 T03451028  RH  009%=      5-min Rain = 0
KCA2 162232Z 34002KT 34/M03 A2968 RMK A01 T03431029  RH  009%=      5-min Rain = 0
KCA2 162233Z 01005KT 34/M03 A2968 RMK A01 T03421027  RH  009%=      5-min Rain = 0
KCA2 162234Z 35010KT 34/M03 A2968 RMK A01 T03421026  RH  009%=      5-min Rain = 0
KCA2 162235Z 35010KT 34/M03 A2968 RMK A01 T03401028  RH  009%=      5-min Rain = 0
KCA2 162236Z 35008KT 34/M03 A2968 RMK A01 T03381029  RH  009%=      5-min Rain = 0
KCA2 162237Z 33011KT 34/M03 A2968 RMK A01 T03371028  RH  010%=      5-min Rain = 0
KCA2 162238Z 33007KT 34/M03 A2968 RMK A01 T03381028  RH  009%=      5-min Rain = 0
KCA2 162239Z 35011KT 34/M03 A2968 RMK A01 T03371028  RH  009%=      5-min Rain = 0
KCA2 162240Z 35013KT 34/M03 A2968 RMK A01 T03401027  RH  009%=      5-min Rain = 0
KCA2 162241Z 33011KT 34/M03 A2968 RMK A01 T03391029  RH  009%=      5-min Rain = 0
KCA2 162242Z 33007G12KT 34/M03 A2968 RMK A01 T03371030  RH  009%=      5-min Rain = 0
KCA2 162243Z 34008G13KT 34/M03 A2968 RMK A01 T03381029  RH  009%=      5-min Rain = 0
KCA2 162244Z 35009KT 34/M03 A2968 RMK A01 T03371029  RH  009%=      5-min Rain = 0
KCA2 162245Z 34012KT 34/M03 A2968 RMK A01 T03391028  RH  009%=      5-min Rain = 0
KCA2 162246Z 35011KT 34/M03 A2968 RMK A01 T03401028  RH  009%=      5-min Rain = 0
KCA2 162247Z 35013KT 34/M03 A2968 RMK A01 T03391029  RH  009%=      5-min Rain = 0
KCA2 162248Z 34011KT 34/M03 A2968 RMK A01 T03391029  RH  009%=      5-min Rain = 0
KCA2 162249Z 33008KT 34/M03 A2969 RMK A01 T03361030  RH  009%=      5-min Rain = 0
KCA2 162250Z 33006KT 34/M03 A2969 RMK A01 T03371029  RH  009%=      5-min Rain = 0
KCA2 162251Z 35009KT 34/M03 A2969 RMK A01 T03381029  RH  009%=      5-min Rain = 0
KCA2 162252Z 00008KT 34/M03 A2969 RMK A01 T03371029  RH  009%=      5-min Rain = 0
KCA2 162253Z 00008KT 34/M03 A2969 RMK A01 T03391029  RH  009%=      5-min Rain = 0
KCA2 162254Z 01007KT 34/M03 A2969 RMK A01 T03381029  RH  009%=      5-min Rain = 0
KCA2 162255Z 01007KT 34/M03 A2969 RMK A01 T03391030  RH  009%=      5-min Rain = 0
KCA2 162256Z 35009KT 34/M03 A2969 RMK A01 T03381033  RH  009%=      5-min Rain = 0
KCA2 162257Z 35010KT 34/M03 A2969 RMK A01 T03351032  RH  009%=      5-min Rain = 0
KCA2 162258Z 35008KT 34/M03 A2969 RMK A01 T03351031  RH  009%=      5-min Rain = 0
KCA2 162259Z 35010KT 34/M03 A2969 RMK A01 T03361029  RH  010%=      5-min Rain = 0
KCA2 162300Z 35009KT 34/M03 A2969 RMK A01 T03361025  RH  010%=      5-min Rain = 0
KCA2 162301Z 00006KT 34/M03 A2969 RMK A01 T03351025  RH  010%=      5-min Rain = 0
KCA2 162302Z 01006KT 33/M02 A2969 RMK A01 T03341024  RH  010%=      5-min Rain = 0
KCA2 162303Z 35007KT 33/M03 A2969 RMK A01 T03341025  RH  010%=      5-min Rain = 0
KCA2 162304Z 34007KT 34/M03 A2969 RMK A01 T03351026  RH  010%=      5-min Rain = 0
KCA2 162305Z 33008KT 34/M03 A2969 RMK A01 T03361026  RH  010%=      5-min Rain = 0
KCA2 162306Z 35009KT 34/M02 A2969 RMK A01 T03381024  RH  010%=      5-min Rain = 0
KCA2 162307Z 35010KT 34/M02 A2969 RMK A01 T03391023  RH  010%=      5-min Rain = 0
KCA2 162308Z 36011KT 34/M02 A2968 RMK A01 T03381023  RH  010%=      5-min Rain = 0
KCA2 162309Z 00010KT 34/M02 A2969 RMK A01 T03361024  RH  010%=      5-min Rain = 0
KCA2 162310Z 36007KT 33/M03 A2969 RMK A01 T03341025  RH  010%=      5-min Rain = 0
KCA2 162311Z 00006KT 33/M02 A2969 RMK A01 T03331024  RH  010%=      5-min Rain = 0
KCA2 162312Z 03008KT 34/M02 A2969 RMK A01 T03351023  RH  010%=      5-min Rain = 0
KCA2 162313Z 03008KT 33/M03 A2969 RMK A01 T03331025  RH  010%=      5-min Rain = 0
KCA2 162314Z 01004KT 33/M03 A2969 RMK A01 T03311027  RH  010%=      5-min Rain = 0
KCA2 162315Z 03002KT 33/M03 A2969 RMK A01 T03291027  RH  010%=      5-min Rain = 0
KCA2 162316Z 06004KT 33/M03 A2969 RMK A01 T03281027  RH  010%=      5-min Rain = 0
KCA2 162317Z 05005KT 33/M03 A2969 RMK A01 T03281025  RH  010%=      5-min Rain = 0
KCA2 162318Z 06005KT 33/M03 A2969 RMK A01 T03291025  RH  010%=      5-min Rain = 0
KCA2 162319Z 01009KT 33/M03 A2969 RMK A01 T03291026  RH  010%=      5-min Rain = 0
KCA2 162320Z 01008G13KT 33/M03 A2969 RMK A01 T03291027  RH  010%=      5-min Rain = 0
KCA2 162321Z 01012KT 33/M03 A2969 RMK A01 T03311026  RH  010%=      5-min Rain = 0
KCA2 162322Z 02010KT 33/M03 A2969 RMK A01 T03311027  RH  010%=      5-min Rain = 0
KCA2 162323Z 01006KT 33/M03 A2969 RMK A01 T03311027  RH  010%=      5-min Rain = 0
KCA2 162324Z 03007KT 33/M03 A2969 RMK A01 T03301027  RH  010%=      5-min Rain = 0
KCA2 162325Z 02008KT 33/M03 A2969 RMK A01 T03301027  RH  010%=      5-min Rain = 0
KCA2 162326Z 01007KT 33/M03 A2969 RMK A01 T03311026  RH  010%=      5-min Rain = 0
KCA2 162327Z 00009KT 33/M03 A2969 RMK A01 T03331027  RH  010%=      5-min Rain = 0
KCA2 162328Z 36006KT 33/M03 A2969 RMK A01 T03331027  RH  010%=      5-min Rain = 0
KCA2 162329Z 35005KT 33/M03 A2969 RMK A01 T03331028  RH  010%=      5-min Rain = 0
KCA2 162330Z 34004KT 33/M03 A2969 RMK A01 T03311029  RH  010%=      5-min Rain = 0
KCA2 162331Z 35004KT 33/M03 A2969 RMK A01 T03311028  RH  010%=      5-min Rain = 0
KCA2 162332Z 33005KT 33/M03 A2969 RMK A01 T03311027  RH  010%=      5-min Rain = 0
KCA2 162333Z 34007KT 33/M03 A2969 RMK A01 T03311026  RH  010%=      5-min Rain = 0
KCA2 162334Z 34007KT 33/M03 A2969 RMK A01 T03301026  RH  010%=      5-min Rain = 0
KCA2 162335Z 34008KT 33/M03 A2969 RMK A01 T03301026  RH  010%=      5-min Rain = 0
KCA2 162336Z 36005KT 33/M03 A2969 RMK A01 T03301026  RH  010%=      5-min Rain = 0
KCA2 162337Z 01007KT 33/M03 A2969 RMK A01 T03311025  RH  010%=      5-min Rain = 0
KCA2 162338Z 36006KT 33/M02 A2969 RMK A01 T03321023  RH  010%=      5-min Rain = 0
KCA2 162339Z 01010KT 33/M02 A2969 RMK A01 T03341021  RH  010%=      5-min Rain = 0
KCA2 162340Z 01009KT 33/M02 A2969 RMK A01 T03341023  RH  010%=      5-min Rain = 0
KCA2 162341Z 00008KT 34/M02 A2969 RMK A01 T03351023  RH  010%=      5-min Rain = 0
KCA2 162342Z 01008KT 33/M02 A2969 RMK A01 T03341023  RH  010%=      5-min Rain = 0
KCA2 162343Z 02008KT 33/M02 A2969 RMK A01 T03341023  RH  010%=      5-min Rain = 0
KCA2 162344Z 01011KT 33/M02 A2969 RMK A01 T03331023  RH  010%=      5-min Rain = 0
KCA2 162345Z 00010KT 33/M03 A2969 RMK A01 T03311025  RH  010%=      5-min Rain = 0
KCA2 162346Z 01008KT 33/M03 A2969 RMK A01 T03291025  RH  010%=      5-min Rain = 0
KCA2 162347Z 03009KT 33/M02 A2969 RMK A01 T03301024  RH  010%=      5-min Rain = 0
KCA2 162348Z 03008KT 33/M02 A2969 RMK A01 T03311024  RH  010%=      5-min Rain = 0
KCA2 162349Z 03007KT 33/M02 A2969 RMK A01 T03321024  RH  010%=      5-min Rain = 0
KCA2 162350Z 02006KT 33/M02 A2969 RMK A01 T03321024  RH  010%=      5-min Rain = 0
KCA2 162351Z 03008KT 33/M03 A2969 RMK A01 T03321025  RH  010%=      5-min Rain = 0
KCA2 162352Z 02007KT 33/M03 A2969 RMK A01 T03321025  RH  010%=      5-min Rain = 0
KCA2 162353Z 02009KT 33/M03 A2969 RMK A01 T03321025  RH  010%=      5-min Rain = 0
KCA2 162354Z 03005KT 33/M03 A2969 RMK A01 T03331026  RH  010%=      5-min Rain = 0
KCA2 162355Z 02006KT 33/M03 A2969 RMK A01 T03311027  RH  010%=      5-min Rain = 0
KCA2 162356Z 02007KT 33/M03 A2969 RMK A01 T03311026  RH  010%=      5-min Rain = 0
KCA2 162357Z 03005KT 33/M03 A2969 RMK A01 T03321028  RH  010%=      5-min Rain = 0
KCA2 162358Z 03003KT 33/M03 A2969 RMK A01 T03311029  RH  010%=      5-min Rain = 0
KCA2 162359Z 01003KT 33/M03 A2969 RMK A01 T03311028  RH  010%=      5-min Rain = 0
KCA2 170000Z 36003KT 33/M03 A2968 RMK A01 T03311027  RH  010%=      5-min Rain = 0
KCA2 170001Z 01002KT 33/M03 A2968 RMK A01 T03321028  RH  010%=      5-min Rain = 0
KCA2 170002Z 34001KT 33/M03 A2968 RMK A01 T03331026  RH  010%=      5-min Rain = 0
KCA2 170003Z 35002KT 33/M03 A2968 RMK A01 T03341027  RH  010%=      5-min Rain = 0
KCA2 170004Z 01006KT 33/M03 A2968 RMK A01 T03341027  RH  010%=      5-min Rain = 0
KCA2 170005Z 01006KT 33/M03 A2968 RMK A01 T03321026  RH  010%=      5-min Rain = 0
KCA2 170006Z 01007KT 33/M03 A2968 RMK A01 T03301025  RH  010%=      5-min Rain = 0
KCA2 170007Z 35007KT 33/M02 A2969 RMK A01 T03291024  RH  010%=      5-min Rain = 0
KCA2 170008Z 34007KT 33/M02 A2969 RMK A01 T03281024  RH  010%=      5-min Rain = 0
KCA2 170009Z 33008KT 33/M03 A2968 RMK A01 T03271027  RH  010%=      5-min Rain = 0
KCA2 170010Z 32008KT 33/M03 A2968 RMK A01 T03261031  RH  010%=      5-min Rain = 0
KCA2 170011Z 32007KT 33/M03 A2968 RMK A01 T03251032  RH  010%=      5-min Rain = 0
KCA2 170012Z 32006KT 33/M03 A2968 RMK A01 T03261031  RH  010%=      5-min Rain = 0
KCA2 170013Z 32008KT 33/M03 A2968 RMK A01 T03261030  RH  010%=      5-min Rain = 0
KCA2 170014Z 32008KT 33/M03 A2968 RMK A01 T03251029  RH  010%=      5-min Rain = 0
KCA2 170015Z 32008KT 32/M03 A2968 RMK A01 T03241031  RH  010%=      5-min Rain = 0
KCA2 170016Z 33009KT 32/M03 A2968 RMK A01 T03241032  RH  010%=      5-min Rain = 0
KCA2 170017Z 33009KT 32/M03 A2968 RMK A01 T03231034  RH  010%=      5-min Rain = 0
KCA2 170018Z 32007KT 32/M03 A2968 RMK A01 T03231034  RH  010%=      5-min Rain = 0
KCA2 170019Z 32007KT 32/M03 A2968 RMK A01 T03231034  RH  010%=      5-min Rain = 0
KCA2 170020Z 32006KT 32/M03 A2968 RMK A01 T03231033  RH  010%=      5-min Rain = 0
KCA2 170021Z 33007KT 32/M03 A2968 RMK A01 T03231033  RH  010%=      5-min Rain = 0
KCA2 170022Z 33006KT 32/M03 A2968 RMK A01 T03231033  RH  010%=      5-min Rain = 0
KCA2 170023Z 33007KT 32/M03 A2968 RMK A01 T03221033  RH  010%=      5-min Rain = 0
KCA2 170024Z 33008KT 32/M03 A2968 RMK A01 T03221034  RH  010%=      5-min Rain = 0
KCA2 170025Z 34011KT 32/M03 A2968 RMK A01 T03221034  RH  010%=      5-min Rain = 0
KCA2 170026Z 34010KT 32/M04 A2968 RMK A01 T03211035  RH  010%=      5-min Rain = 0
KCA2 170027Z 34010KT 32/M04 A2968 RMK A01 T03211035  RH  010%=      5-min Rain = 0
KCA2 170028Z 35009KT 32/M04 A2968 RMK A01 T03211036  RH  010%=      5-min Rain = 0
KCA2 170029Z 34009KT 32/M04 A2968 RMK A01 T03221036  RH  010%=      5-min Rain = 0
KCA2 170030Z 35008KT 32/M04 A2968 RMK A01 T03221035  RH  010%=      5-min Rain = 0
KCA2 170031Z 35008KT 32/M04 A2968 RMK A01 T03221035  RH  010%=      5-min Rain = 0
KCA2 170032Z 35008KT 32/M04 A2968 RMK A01 T03231035  RH  010%=      5-min Rain = 0
KCA2 170033Z 34007KT 32/M04 A2968 RMK A01 T03221035  RH  010%=      5-min Rain = 0
KCA2 170034Z 35009KT 32/M04 A2968 RMK A01 T03211036  RH  010%=      5-min Rain = 0
KCA2 170035Z 35010KT 32/M04 A2968 RMK A01 T03201036  RH  010%=      5-min Rain = 0
KCA2 170036Z 34012KT 32/M04 A2968 RMK A01 T03191035  RH  010%=      5-min Rain = 0
KCA2 170037Z 35010KT 32/M04 A2968 RMK A01 T03191035  RH  010%=      5-min Rain = 0
KCA2 170038Z 34010KT 32/M04 A2968 RMK A01 T03191036  RH  010%=      5-min Rain = 0
KCA2 170039Z 34009KT 32/M04 A2968 RMK A01 T03191036  RH  010%=      5-min Rain = 0
KCA2 170040Z 35010KT 32/M04 A2968 RMK A01 T03191035  RH  010%=      5-min Rain = 0
KCA2 170041Z 34011KT 32/M04 A2968 RMK A01 T03201035  RH  010%=      5-min Rain = 0
KCA2 170042Z 35011KT 32/M04 A2968 RMK A01 T03201035  RH  010%=      5-min Rain = 0
KCA2 170043Z 34010KT 32/M04 A2968 RMK A01 T03201035  RH  010%=      5-min Rain = 0
KCA2 170044Z 35012KT 32/M04 A2968 RMK A01 T03201035  RH  010%=      5-min Rain = 0
KCA2 170045Z 01012KT 32/M03 A2969 RMK A01 T03191034  RH  010%=      5-min Rain = 0
KCA2 170046Z 03012KT 32/M01 A2969 RMK A01 T03171008  RH  012%=      5-min Rain = 0
KCA2 170047Z 02016G21KT 31/02 A2969 RMK A01 T03110015  RH  015%=      5-min Rain = 0
KCA2 170048Z 01021G26KT 31/03 A2969 RMK A01 T03060025  RH  017%=      5-min Rain = 0
KCA2 170049Z 02016G21KT 30/03 A2969 RMK A01 T03020028  RH  017%=      5-min Rain = 0
KCA2 170050Z 02015G20KT 30/03 A2969 RMK A01 T03000030  RH  018%=      5-min Rain = 0
KCA2 170051Z 04021G26KT 30/03 A2969 RMK A01 T02980033  RH  018%=      5-min Rain = 0
KCA2 170052Z 03020G29KT 30/04 A2969 RMK A01 T02960036  RH  019%=      5-min Rain = 0
KCA2 170053Z 03023KT 29/04 A2969 RMK A01 T02930038  RH  020%=      5-min Rain = 0
KCA2 170054Z 03021G27KT 29/04 A2969 RMK A01 T02910042  RH  020%=      5-min Rain = 0
KCA2 170055Z 03024KT 29/04 A297 RMK A01 T02890044  RH  021%=      5-min Rain = 0
KCA2 170056Z 03020KT 29/05 A297 RMK A01 T02870045  RH  021%=      5-min Rain = 0
KCA2 170057Z 03023KT 29/05 A297 RMK A01 T02860045  RH  022%=      5-min Rain = 0
KCA2 170058Z 03021KT 29/05 A297 RMK A01 T02850047  RH  022%=      5-min Rain = 0
KCA2 170059Z 03021G26KT 29/05 A297 RMK A01 T02850048  RH  022%=      5-min Rain = 0
KCA2 170100Z 03020G25KT 29/05 A297 RMK A01 T02850049  RH  022%=      5-min Rain = 0
KCA2 170101Z 02020G25KT 28/05 A297 RMK A01 T02840050  RH  023%=      5-min Rain = 0
KCA2 170102Z 02018G24KT 28/05 A297 RMK A01 T02830051  RH  023%=      5-min Rain = 0
KCA2 170103Z 03020KT 28/05 A297 RMK A01 T02830052  RH  023%=      5-min Rain = 0
KCA2 170104Z 03019G25KT 28/05 A297 RMK A01 T02820052  RH  023%=      5-min Rain = 0
KCA2 170105Z 03019G24KT 28/05 A297 RMK A01 T02810052  RH  023%=      5-min Rain = 0
KCA2 170106Z 02016KT 28/05 A297 RMK A01 T02810052  RH  023%=      5-min Rain = 0
KCA2 170107Z 03018G23KT 28/05 A297 RMK A01 T02800052  RH  023%=      5-min Rain = 0
KCA2 170108Z 03021G27KT 28/05 A297 RMK A01 T02800054  RH  024%=      5-min Rain = 0
KCA2 170109Z 02020G26KT 28/06 A2969 RMK A01 T02780055  RH  024%=      5-min Rain = 0
KCA2 170110Z 03021G26KT 28/06 A297 RMK A01 T02770055  RH  024%=      5-min Rain = 0
KCA2 170111Z 03018KT 28/06 A2969 RMK A01 T02760055  RH  024%=      5-min Rain = 0
KCA2 170112Z 02022KT 28/06 A2969 RMK A01 T02760056  RH  025%=      5-min Rain = 0
KCA2 170113Z 02018G25KT 28/06 A297 RMK A01 T02750056  RH  025%=      5-min Rain = 0
KCA2 170114Z 03016G22KT 28/06 A297 RMK A01 T02750056  RH  025%=      5-min Rain = 0
KCA2 170115Z 03017G23KT 28/06 A297 RMK A01 T02750055  RH  025%=      5-min Rain = 0
KCA2 170116Z 03018KT 27/06 A297 RMK A01 T02740055  RH  025%=      5-min Rain = 0
KCA2 170117Z 03017G22KT 27/06 A297 RMK A01 T02730055  RH  025%=      5-min Rain = 0
KCA2 170118Z 02020G25KT 27/06 A297 RMK A01 T02730055  RH  025%=      5-min Rain = 0
KCA2 170119Z 03017KT 27/06 A297 RMK A01 T02720055  RH  025%=      5-min Rain = 0
KCA2 170120Z 03019G26KT 27/06 A297 RMK A01 T02720055  RH  025%=      5-min Rain = 0
KCA2 170121Z 02018KT 27/06 A297 RMK A01 T02710056  RH  025%=      5-min Rain = 0
KCA2 170122Z 03019G26KT 27/06 A297 RMK A01 T02700055  RH  025%=      5-min Rain = 0
KCA2 170123Z 03021KT 27/06 A297 RMK A01 T02700056  RH  025%=      5-min Rain = 0
KCA2 170124Z 03016G22KT 27/06 A297 RMK A01 T02690055  RH  025%=      5-min Rain = 0
KCA2 170125Z 03015KT 27/06 A297 RMK A01 T02690055  RH  025%=      5-min Rain = 0
KCA2 170126Z 03015G20KT 27/06 A297 RMK A01 T02690055  RH  026%=      5-min Rain = 0
KCA2 170127Z 02021G26KT 27/06 A297 RMK A01 T02680055  RH  026%=      5-min Rain = 0
KCA2 170128Z 03018KT 27/06 A297 RMK A01 T02680055  RH  026%=      5-min Rain = 0
KCA2 170129Z 03016G21KT 27/06 A297 RMK A01 T02670055  RH  026%=      5-min Rain = 0
KCA2 170130Z 03020G29KT 27/06 A297 RMK A01 T02670055  RH  026%=      5-min Rain = 0
KCA2 170131Z 03018G24KT 27/06 A297 RMK A01 T02670056  RH  026%=      5-min Rain = 0
KCA2 170132Z 03017KT 27/06 A297 RMK A01 T02660055  RH  026%=      5-min Rain = 0
KCA2 170133Z 02021KT 27/06 A297 RMK A01 T02660056  RH  026%=      5-min Rain = 0
KCA2 170134Z 02015KT 26/06 A297 RMK A01 T02640055  RH  026%=      5-min Rain = 0
KCA2 170135Z 02021KT 26/06 A297 RMK A01 T02640055  RH  026%=      5-min Rain = 0
KCA2 170136Z 02019G26KT 26/05 A297 RMK A01 T02630054  RH  026%=      5-min Rain = 0
KCA2 170137Z 02021KT 26/06 A297 RMK A01 T02630055  RH  026%=      5-min Rain = 0
KCA2 170138Z 02020KT 26/06 A297 RMK A01 T02630055  RH  026%=      5-min Rain = 0
KCA2 170139Z 02022KT 26/06 A297 RMK A01 T02620055  RH  026%=      5-min Rain = 0
KCA2 170140Z 02018KT 26/06 A297 RMK A01 T02620055  RH  026%=      5-min Rain = 0
KCA2 170141Z 02018KT 26/05 A297 RMK A01 T02610054  RH  026%=      5-min Rain = 0
KCA2 170142Z 02017KT 26/05 A297 RMK A01 T02610054  RH  026%=      5-min Rain = 0
KCA2 170143Z 03018KT 26/05 A2971 RMK A01 T02610054  RH  026%=      5-min Rain = 0
KCA2 170144Z 02017KT 26/05 A2971 RMK A01 T02610053  RH  026%=      5-min Rain = 0
KCA2 170145Z 03016G21KT 26/05 A297 RMK A01 T02610053  RH  026%=      5-min Rain = 0
KCA2 170146Z 03019G24KT 26/05 A2971 RMK A01 T02610054  RH  026%=      5-min Rain = 0
KCA2 170147Z 03016G21KT 26/05 A2971 RMK A01 T02610054  RH  026%=      5-min Rain = 0
KCA2 170148Z 03021G26KT 26/05 A2971 RMK A01 T02610053  RH  026%=      5-min Rain = 0
KCA2 170149Z 03018KT 26/05 A2971 RMK A01 T02610053  RH  026%=      5-min Rain = 0
KCA2 170150Z 03018KT 26/05 A2971 RMK A01 T02610053  RH  026%=      5-min Rain = 0
KCA2 170151Z 02016KT 26/05 A2971 RMK A01 T02610053  RH  026%=      5-min Rain = 0
KCA2 170152Z 02012KT 26/05 A2971 RMK A01 T02600052  RH  026%=      5-min Rain = 0
KCA2 170153Z 02011KT 26/05 A2971 RMK A01 T02600052  RH  026%=      5-min Rain = 0
KCA2 170154Z 02015G21KT 26/05 A2971 RMK A01 T02600051  RH  026%=      5-min Rain = 0
KCA2 170155Z 02011KT 26/05 A2971 RMK A01 T02590051  RH  026%=      5-min Rain = 0
KCA2 170156Z 02011KT 26/05 A2972 RMK A01 T02590051  RH  026%=      5-min Rain = 0
KCA2 170157Z 02015KT 26/05 A2972 RMK A01 T02580051  RH  026%=      5-min Rain = 0
KCA2 170158Z 01015KT 26/05 A2972 RMK A01 T02580050  RH  026%=      5-min Rain = 0
KCA2 170159Z 01015KT 26/05 A2972 RMK A01 T02570050  RH  026%=      5-min Rain = 0
KCA2 170200Z 00016KT 26/05 A2972 RMK A01 T02570049  RH  026%=      5-min Rain = 0
KCA2 170201Z 00015KT 26/05 A2972 RMK A01 T02570048  RH  026%=      5-min Rain = 0
KCA2 170202Z 01015KT 26/05 A2972 RMK A01 T02560048  RH  026%=      5-min Rain = 0
KCA2 170203Z 01014KT 26/05 A2972 RMK A01 T02560048  RH  026%=      5-min Rain = 0
KCA2 170204Z 01013KT 26/05 A2972 RMK A01 T02560047  RH  026%=      5-min Rain = 0
KCA2 170205Z 01013KT 26/05 A2972 RMK A01 T02550047  RH  026%=      5-min Rain = 0
KCA2 170206Z 01013KT 26/05 A2972 RMK A01 T02550047  RH  026%=      5-min Rain = 0
KCA2 170207Z 01016KT 26/05 A2972 RMK A01 T02550046  RH  026%=      5-min Rain = 0
KCA2 170208Z 01011G16KT 26/05 A2972 RMK A01 T02550046  RH  026%=      5-min Rain = 0
KCA2 170209Z 02010G15KT 26/05 A2972 RMK A01 T02550046  RH  026%=      5-min Rain = 0
KCA2 170210Z 01012KT 26/05 A2973 RMK A01 T02550046  RH  026%=      5-min Rain = 0
KCA2 170211Z 01014KT 25/05 A2973 RMK A01 T02540045  RH  026%=      5-min Rain = 0
KCA2 170212Z 01015KT 25/05 A2973 RMK A01 T02540045  RH  026%=      5-min Rain = 0
KCA2 170213Z 02015KT 25/05 A2973 RMK A01 T02530045  RH  026%=      5-min Rain = 0
KCA2 170214Z 01011KT 25/05 A2973 RMK A01 T02530045  RH  026%=      5-min Rain = 0
KCA2 170215Z 01013G19KT 25/05 A2973 RMK A01 T02530045  RH  026%=      5-min Rain = 0
KCA2 170216Z 01016KT 25/05 A2974 RMK A01 T02530045  RH  026%=      5-min Rain = 0
KCA2 170217Z 01014KT 25/05 A2974 RMK A01 T02520046  RH  026%=      5-min Rain = 0
KCA2 170218Z 01011KT 25/05 A2974 RMK A01 T02510046  RH  027%=      5-min Rain = 0
KCA2 170219Z 02008KT 25/05 A2974 RMK A01 T02510045  RH  027%=      5-min Rain = 0
KCA2 170220Z 03007KT 25/05 A2974 RMK A01 T02510045  RH  027%=      5-min Rain = 0
KCA2 170221Z 02006KT 25/05 A2974 RMK A01 T02510045  RH  027%=      5-min Rain = 0
KCA2 170222Z 03004KT 25/05 A2974 RMK A01 T02510045  RH  027%=      5-min Rain = 0
KCA2 170223Z 02003KT 25/05 A2975 RMK A01 T02510045  RH  027%=      5-min Rain = 0
KCA2 170224Z 01005KT 25/05 A2975 RMK A01 T02500045  RH  027%=      5-min Rain = 0
KCA2 170225Z 35003KT 25/05 A2975 RMK A01 T02500045  RH  027%=      5-min Rain = 0
KCA2 170226Z 35005KT 25/05 A2975 RMK A01 T02500045  RH  027%=      5-min Rain = 0
KCA2 170227Z 01003KT 25/05 A2975 RMK A01 T02500045  RH  027%=      5-min Rain = 0
KCA2 170228Z 02003KT 25/05 A2975 RMK A01 T02500045  RH  027%=      5-min Rain = 0
KCA2 170229Z 03002KT 25/05 A2975 RMK A01 T02500045  RH  027%=      5-min Rain = 0
KCA2 170230Z 05006KT 25/05 A2975 RMK A01 T02500045  RH  027%=      5-min Rain = 0
KCA2 170231Z 04006KT 25/05 A2975 RMK A01 T02500045  RH  027%=      5-min Rain = 0
KCA2 170232Z 31004KT 25/05 A2976 RMK A01 T02500045  RH  027%=      5-min Rain = 0
KCA2 170233Z 33004KT 25/05 A2976 RMK A01 T02490045  RH  027%=      5-min Rain = 0
KCA2 170234Z 02003KT 25/05 A2976 RMK A01 T02490045  RH  027%=      5-min Rain = 0
KCA2 170235Z 06006KT 25/05 A2976 RMK A01 T02480045  RH  027%=      5-min Rain = 0
KCA2 170236Z 02006KT 25/05 A2976 RMK A01 T02490046  RH  027%=      5-min Rain = 0
KCA2 170237Z 00005KT 25/05 A2976 RMK A01 T02490046  RH  027%=      5-min Rain = 0
KCA2 170238Z 36004KT 25/05 A2976 RMK A01 T02480046  RH  027%=      5-min Rain = 0
KCA2 170239Z 01003KT 25/05 A2977 RMK A01 T02480047  RH  027%=      5-min Rain = 0
KCA2 170240Z 33003KT 25/05 A2977 RMK A01 T02480046  RH  027%=      5-min Rain = 0
KCA2 170241Z 28001KT 25/05 A2977 RMK A01 T02480046  RH  027%=      5-min Rain = 0
KCA2 170242Z 18002KT 25/05 A2977 RMK A01 T02470046  RH  027%=      5-min Rain = 0
KCA2 170243Z 22003KT 25/05 A2977 RMK A01 T02470046  RH  027%=      5-min Rain = 0
KCA2 170244Z 30008KT 25/05 A2977 RMK A01 T02470046  RH  027%=      5-min Rain = 0
KCA2 170245Z 30007KT 25/05 A2977 RMK A01 T02460045  RH  027%=      5-min Rain = 0
KCA2 170246Z 31007KT 25/05 A2977 RMK A01 T02450045  RH  027%=      5-min Rain = 0
KCA2 170247Z 31005KT 24/05 A2977 RMK A01 T02440046  RH  028%=      5-min Rain = 0
KCA2 170248Z 30008KT 24/05 A2977 RMK A01 T02440045  RH  028%=      5-min Rain = 0
KCA2 170249Z 31009KT 24/05 A2977 RMK A01 T02430045  RH  028%=      5-min Rain = 0
KCA2 170250Z 32006KT 24/05 A2977 RMK A01 T02430045  RH  028%=      5-min Rain = 0
KCA2 170251Z 32008KT 24/05 A2977 RMK A01 T02430045  RH  028%=      5-min Rain = 0
KCA2 170252Z 30006KT 24/04 A2977 RMK A01 T02430044  RH  028%=      5-min Rain = 0
KCA2 170253Z 31008KT 24/04 A2977 RMK A01 T02420043  RH  028%=      5-min Rain = 0
KCA2 170254Z 32007KT 24/04 A2977 RMK A01 T02410042  RH  027%=      5-min Rain = 0
KCA2 170255Z 32007KT 24/04 A2977 RMK A01 T02410041  RH  027%=      5-min Rain = 0
KCA2 170256Z 31008KT 24/04 A2977 RMK A01 T02410041  RH  027%=      5-min Rain = 0
KCA2 170257Z 30007KT 24/04 A2977 RMK A01 T02410041  RH  027%=      5-min Rain = 0
KCA2 170258Z 30005KT 24/04 A2977 RMK A01 T02410039  RH  027%=      5-min Rain = 0
KCA2 170259Z 35004KT 24/04 A2977 RMK A01 T02400038  RH  027%=      5-min Rain = 0
KCA2 170300Z 36006KT 24/04 A2977 RMK A01 T02400038  RH  027%=      5-min Rain = 0
KCA2 170301Z 33007KT 24/04 A2978 RMK A01 T02410038  RH  027%=      5-min Rain = 0
KCA2 170302Z 33007G13KT 24/04 A2978 RMK A01 T02410038  RH  027%=      5-min Rain = 0
KCA2 170303Z 34008KT 24/04 A2978 RMK A01 T02410037  RH  027%=      5-min Rain = 0
KCA2 170304Z 00011G16KT 24/04 A2978 RMK A01 T02410037  RH  027%=      5-min Rain = 0
KCA2 170305Z 35007KT 24/04 A2978 RMK A01 T02410037  RH  027%=      5-min Rain = 0
KCA2 170306Z 34011KT 24/04 A2978 RMK A01 T02400036  RH  027%=      5-min Rain = 0
KCA2 170307Z 33009G15KT 24/04 A2978 RMK A01 T02400036  RH  027%=      5-min Rain = 0
KCA2 170308Z 35009KT 24/04 A2978 RMK A01 T02400037  RH  027%=      5-min Rain = 0
KCA2 170309Z 34008KT 24/04 A2978 RMK A01 T02400037  RH  027%=      5-min Rain = 0
KCA2 170310Z 35008G15KT 24/04 A2978 RMK A01 T02390036  RH  027%=      5-min Rain = 0
KCA2 170311Z 00013G20KT 24/04 A2978 RMK A01 T02390036  RH  027%=      5-min Rain = 0
KCA2 170312Z 01016KT 24/04 A2978 RMK A01 T02390036  RH  027%=      5-min Rain = 0
KCA2 170313Z 01015KT 24/04 A2978 RMK A01 T02390036  RH  027%=      5-min Rain = 0
KCA2 170314Z 01017KT 24/04 A2978 RMK A01 T02390037  RH  027%=      5-min Rain = 0
KCA2 170315Z 00013KT 24/04 A2978 RMK A01 T02390037  RH  027%=      5-min Rain = 0
KCA2 170316Z 36011KT 24/04 A2979 RMK A01 T02380037  RH  027%=      5-min Rain = 0
KCA2 170317Z 35009KT 24/04 A2979 RMK A01 T02390037  RH  027%=      5-min Rain = 0
KCA2 170318Z 36011G17KT 24/04 A2979 RMK A01 T02390037  RH  027%=      5-min Rain = 0
KCA2 170319Z 36010G15KT 24/04 A2979 RMK A01 T02380037  RH  027%=      5-min Rain = 0
KCA2 170320Z 35009KT 24/04 A2979 RMK A01 T02380038  RH  027%=      5-min Rain = 0
KCA2 170321Z 35011KT 24/04 A2979 RMK A01 T02380038  RH  027%=      5-min Rain = 0
KCA2 170322Z 36014KT 24/04 A2979 RMK A01 T02380038  RH  027%=      5-min Rain = 0
KCA2 170323Z 36012G17KT 24/04 A2979 RMK A01 T02380038  RH  027%=      5-min Rain = 0
KCA2 170324Z 36011KT 24/04 A2979 RMK A01 T02370039  RH  027%=      5-min Rain = 0
KCA2 170325Z 00014G20KT 24/04 A2979 RMK A01 T02380040  RH  028%=      5-min Rain = 0
KCA2 170326Z 00014G20KT 24/04 A2979 RMK A01 T02370040  RH  028%=      5-min Rain = 0
KCA2 170327Z 00013KT 24/04 A2979 RMK A01 T02370041  RH  028%=      5-min Rain = 0
KCA2 170328Z 00014KT 24/04 A2979 RMK A01 T02360041  RH  028%=      5-min Rain = 0
KCA2 170329Z 00019KT 24/04 A2979 RMK A01 T02360041  RH  028%=      5-min Rain = 0
KCA2 170330Z 00013KT 24/04 A2979 RMK A01 T02360042  RH  028%=      5-min Rain = 0
KCA2 170331Z 36011G19KT 24/04 A2979 RMK A01 T02360041  RH  028%=      5-min Rain = 0
KCA2 170332Z 00013G19KT 24/04 A2979 RMK A01 T02360041  RH  028%=      5-min Rain = 0
KCA2 170333Z 35010G15KT 24/04 A2979 RMK A01 T02350041  RH  028%=      5-min Rain = 0
KCA2 170334Z 36018KT 24/04 A2979 RMK A01 T02350041  RH  028%=      5-min Rain = 0
KCA2 170335Z 01015KT 24/04 A298 RMK A01 T02350041  RH  028%=      5-min Rain = 0
KCA2 170336Z 36012KT 23/04 A298 RMK A01 T02340042  RH  029%=      5-min Rain = 0
KCA2 170337Z 35015KT 23/04 A298 RMK A01 T02340042  RH  029%=      5-min Rain = 0
KCA2 170338Z 35014KT 23/04 A298 RMK A01 T02340042  RH  029%=      5-min Rain = 0
KCA2 170339Z 35014KT 23/04 A298 RMK A01 T02340042  RH  029%=      5-min Rain = 0
KCA2 170340Z 34013G21KT 23/04 A2981 RMK A01 T02340042  RH  029%=      5-min Rain = 0
KCA2 170341Z 36014G21KT 23/04 A298 RMK A01 T02330043  RH  029%=      5-min Rain = 0
KCA2 170342Z 01014KT 23/04 A2981 RMK A01 T02330044  RH  029%=      5-min Rain = 0
KCA2 170343Z 36008KT 23/04 A2981 RMK A01 T02320044  RH  029%=      5-min Rain = 0
KCA2 170344Z 35013KT 23/05 A2981 RMK A01 T02330045  RH  029%=      5-min Rain = 0
KCA2 170345Z 36012KT 23/05 A2981 RMK A01 T02320046  RH  030%=      5-min Rain = 0
KCA2 170346Z 35013KT 23/05 A2981 RMK A01 T02320046  RH  030%=      5-min Rain = 0
KCA2 170347Z 35012KT 23/05 A2981 RMK A01 T02310047  RH  030%=      5-min Rain = 0
KCA2 170348Z 35010G15KT 23/05 A2981 RMK A01 T02310047  RH  030%=      5-min Rain = 0
KCA2 170349Z 34011KT 23/05 A2982 RMK A01 T02310047  RH  030%=      5-min Rain = 0
KCA2 170350Z 34014KT 23/05 A2982 RMK A01 T02310047  RH  030%=      5-min Rain = 0
KCA2 170351Z 33010KT 23/05 A2982 RMK A01 T02300047  RH  030%=      5-min Rain = 0
KCA2 170352Z 33008G13KT 23/05 A2982 RMK A01 T02300048  RH  031%=      5-min Rain = 0
KCA2 170353Z 33013KT 23/05 A2982 RMK A01 T02300048  RH  031%=      5-min Rain = 0
KCA2 170354Z 34011KT 23/05 A2982 RMK A01 T02300049  RH  031%=      5-min Rain = 0
KCA2 170355Z 34015KT 23/05 A2982 RMK A01 T02290049  RH  031%=      5-min Rain = 0
KCA2 170356Z 33011KT 23/05 A2982 RMK A01 T02290050  RH  031%=      5-min Rain = 0
KCA2 170357Z 33012KT 23/05 A2982 RMK A01 T02290050  RH  031%=      5-min Rain = 0
KCA2 170358Z 34015KT 23/05 A2982 RMK A01 T02290052  RH  032%=      5-min Rain = 0
KCA2 170359Z 32011KT 23/05 A2982 RMK A01 T02280052  RH  032%=      5-min Rain = 0
KCA2 170400Z 33012KT 23/05 A2983 RMK A01 T02270051  RH  032%=      5-min Rain = 0
KCA2 170401Z 33008KT 23/05 A2983 RMK A01 T02280052  RH  032%=      5-min Rain = 0
KCA2 170402Z 34009G15KT 23/05 A2983 RMK A01 T02270052  RH  032%=      5-min Rain = 0
KCA2 170403Z 35010KT 23/05 A2983 RMK A01 T02270053  RH  032%=      5-min Rain = 0
KCA2 170404Z 33008KT 23/05 A2983 RMK A01 T02270053  RH  032%=      5-min Rain = 0
KCA2 170405Z 33012KT 23/05 A2983 RMK A01 T02270053  RH  032%=      5-min Rain = 0
KCA2 170406Z 33012KT 23/05 A2983 RMK A01 T02270054  RH  033%=      5-min Rain = 0
KCA2 170407Z 32009KT 23/05 A2984 RMK A01 T02270054  RH  033%=      5-min Rain = 0
KCA2 170408Z 32012KT 23/05 A2983 RMK A01 T02270054  RH  033%=      5-min Rain = 0
KCA2 170409Z 33011KT 23/06 A2984 RMK A01 T02270055  RH  033%=      5-min Rain = 0
KCA2 170410Z 33010KT 23/06 A2984 RMK A01 T02270056  RH  033%=      5-min Rain = 0
KCA2 170411Z 32010KT 23/06 A2984 RMK A01 T02270056  RH  033%=      5-min Rain = 0
KCA2 170412Z 32011KT 23/06 A2984 RMK A01 T02260056  RH  033%=      5-min Rain = 0
KCA2 170413Z 31013KT 23/06 A2984 RMK A01 T02260057  RH  034%=      5-min Rain = 0
KCA2 170414Z 31011KT 23/06 A2984 RMK A01 T02250058  RH  034%=      5-min Rain = 0
KCA2 170415Z 31012KT 23/06 A2984 RMK A01 T02250057  RH  034%=      5-min Rain = 0
KCA2 170416Z 31012KT 22/06 A2984 RMK A01 T02240057  RH  034%=      5-min Rain = 0
KCA2 170417Z 32012KT 22/06 A2984 RMK A01 T02240058  RH  034%=      5-min Rain = 0
KCA2 170418Z 31012KT 22/06 A2984 RMK A01 T02240058  RH  034%=      5-min Rain = 0
KCA2 170419Z 31012KT 22/06 A2984 RMK A01 T02240058  RH  034%=      5-min Rain = 0
KCA2 170420Z 31013KT 22/06 A2984 RMK A01 T02240060  RH  034%=      5-min Rain = 0
KCA2 170421Z 30013KT 22/06 A2984 RMK A01 T02240060  RH  035%=      5-min Rain = 0
KCA2 170422Z 29013KT 22/06 A2984 RMK A01 T02230060  RH  035%=      5-min Rain = 0
KCA2 170423Z 30013G18KT 22/06 A2984 RMK A01 T02230060  RH  035%=      5-min Rain = 0
KCA2 170424Z 30013KT 22/06 A2984 RMK A01 T02230061  RH  035%=      5-min Rain = 0
KCA2 170425Z 31016KT 22/06 A2984 RMK A01 T02220061  RH  035%=      5-min Rain = 0
KCA2 170426Z 30013KT 22/06 A2984 RMK A01 T02230062  RH  035%=      5-min Rain = 0
KCA2 170427Z 30012KT 22/06 A2984 RMK A01 T02230062  RH  035%=      5-min Rain = 0
KCA2 170428Z 29013KT 22/06 A2984 RMK A01 T02220061  RH  035%=      5-min Rain = 0
KCA2 170429Z 30016KT 22/06 A2984 RMK A01 T02220060  RH  035%=      5-min Rain = 0
KCA2 170430Z 30016KT 22/06 A2985 RMK A01 T02220061  RH  035%=      5-min Rain = 0
KCA2 170431Z 30015KT 22/06 A2985 RMK A01 T02220062  RH  035%=      5-min Rain = 0
KCA2 170432Z 30013KT 22/06 A2985 RMK A01 T02220062  RH  036%=      5-min Rain = 0
KCA2 170433Z 30015KT 22/06 A2985 RMK A01 T02210063  RH  036%=      5-min Rain = 0
KCA2 170434Z 30013KT 22/06 A2985 RMK A01 T02210063  RH  036%=      5-min Rain = 0
KCA2 170435Z 30015KT 22/06 A2984 RMK A01 T02210063  RH  036%=      5-min Rain = 0
KCA2 170436Z 31016KT 22/06 A2984 RMK A01 T02200063  RH  036%=      5-min Rain = 0
KCA2 170437Z 32015KT 22/06 A2984 RMK A01 T02200063  RH  036%=      5-min Rain = 0
KCA2 170438Z 31013KT 22/06 A2984 RMK A01 T02210064  RH  036%=      5-min Rain = 0
KCA2 170439Z 30014KT 22/06 A2984 RMK A01 T02200063  RH  036%=      5-min Rain = 0
KCA2 170440Z 31015KT 22/06 A2984 RMK A01 T02200063  RH  036%=      5-min Rain = 0
KCA2 170441Z 32013KT 22/06 A2985 RMK A01 T02190064  RH  036%=      5-min Rain = 0
KCA2 170442Z 31013KT 22/06 A2985 RMK A01 T02190064  RH  037%=      5-min Rain = 0
KCA2 170443Z 31013G18KT 22/06 A2985 RMK A01 T02190064  RH  037%=      5-min Rain = 0
KCA2 170444Z 31013KT 22/06 A2985 RMK A01 T02190064  RH  037%=      5-min Rain = 0
KCA2 170445Z 30015KT 22/06 A2985 RMK A01 T02190064  RH  037%=      5-min Rain = 0
KCA2 170446Z 29015KT 22/07 A2985 RMK A01 T02190065  RH  037%=      5-min Rain = 0
KCA2 170447Z 28013KT 22/07 A2985 RMK A01 T02190065  RH  037%=      5-min Rain = 0
KCA2 170448Z 30015KT 22/06 A2985 RMK A01 T02180064  RH  037%=      5-min Rain = 0
KCA2 170449Z 30018KT 22/07 A2985 RMK A01 T02180066  RH  037%=      5-min Rain = 0
KCA2 170450Z 29016KT 22/07 A2985 RMK A01 T02180066  RH  037%=      5-min Rain = 0
KCA2 170451Z 29014KT 22/07 A2985 RMK A01 T02180066  RH  037%=      5-min Rain = 0
KCA2 170452Z 29015KT 22/07 A2985 RMK A01 T02170066  RH  037%=      5-min Rain = 0
KCA2 170453Z 29015KT 22/07 A2985 RMK A01 T02170067  RH  038%=      5-min Rain = 0
KCA2 170454Z 30017KT 22/07 A2985 RMK A01 T02170068  RH  038%=      5-min Rain = 0
KCA2 170455Z 31013KT 22/07 A2986 RMK A01 T02170068  RH  038%=      5-min Rain = 0
KCA2 170456Z 30014KT 22/07 A2986 RMK A01 T02160068  RH  038%=      5-min Rain = 0
KCA2 170457Z 30011KT 22/07 A2986 RMK A01 T02160068  RH  038%=      5-min Rain = 0
KCA2 170458Z 30011KT 22/07 A2986 RMK A01 T02150068  RH  038%=      5-min Rain = 0
KCA2 170459Z 29011KT 22/07 A2986 RMK A01 T02150068  RH  039%=      5-min Rain = 0

Page generated in 0.0702 seconds.